Observation data for Palo Duro Reservoir 1NW on 10/16/2019      Previous  Date       Current Mesonet Observations  Soil Data  Daily Summary Page  Observations in Plain Language
KPD4 160500Z 02004KT 05/M02 A3027 RMK A01 T00501017  RH  062%=      5-min Rain = 0
KPD4 160501Z 02003KT 05/M02 A3027 RMK A01 T00511017  RH  062%=      5-min Rain = 0
KPD4 160502Z 02004KT 05/M02 A3027 RMK A01 T00511017  RH  061%=      5-min Rain = 0
KPD4 160503Z 02004KT 05/M02 A3027 RMK A01 T00521017  RH  061%=      5-min Rain = 0
KPD4 160504Z 02004KT 05/M02 A3027 RMK A01 T00521017  RH  061%=      5-min Rain = 0
KPD4 160505Z 02004KT 05/M02 A3027 RMK A01 T00521017  RH  061%=      5-min Rain = 0
KPD4 160506Z 03004KT 05/M02 A3027 RMK A01 T00501018  RH  062%=      5-min Rain = 0
KPD4 160507Z 03004KT 05/M02 A3027 RMK A01 T00491018  RH  062%=      5-min Rain = 0
KPD4 160508Z 03004KT 05/M02 A3027 RMK A01 T00481018  RH  062%=      5-min Rain = 0
KPD4 160509Z 02004KT 05/M02 A3027 RMK A01 T00481018  RH  063%=      5-min Rain = 0
KPD4 160510Z 02004KT 05/M02 A3027 RMK A01 T00481017  RH  063%=      5-min Rain = 0
KPD4 160511Z 03004KT 05/M02 A3027 RMK A01 T00491017  RH  062%=      5-min Rain = 0
KPD4 160512Z 02004KT 05/M02 A3027 RMK A01 T00511017  RH  062%=      5-min Rain = 0
KPD4 160513Z 03004KT 05/M02 A3027 RMK A01 T00521017  RH  061%=      5-min Rain = 0
KPD4 160514Z 03004KT 05/M02 A3027 RMK A01 T00521018  RH  061%=      5-min Rain = 0
KPD4 160515Z 03004KT 05/M02 A3027 RMK A01 T00531017  RH  060%=      5-min Rain = 0
KPD4 160516Z 03004KT 05/M02 A3027 RMK A01 T00531017  RH  060%=      5-min Rain = 0
KPD4 160517Z 03004KT 05/M02 A3027 RMK A01 T00531018  RH  060%=      5-min Rain = 0
KPD4 160518Z 03004KT 05/M02 A3027 RMK A01 T00531018  RH  060%=      5-min Rain = 0
KPD4 160519Z 04004KT 05/M02 A3027 RMK A01 T00541018  RH  060%=      5-min Rain = 0
KPD4 160520Z 03004KT 06/M02 A3027 RMK A01 T00551018  RH  059%=      5-min Rain = 0
KPD4 160521Z 03004KT 06/M02 A3027 RMK A01 T00551018  RH  059%=      5-min Rain = 0
KPD4 160522Z 03004KT 06/M02 A3027 RMK A01 T00551018  RH  059%=      5-min Rain = 0
KPD4 160523Z 03003KT 06/M02 A3027 RMK A01 T00551018  RH  059%=      5-min Rain = 0
KPD4 160524Z 03003KT 05/M02 A3027 RMK A01 T00541018  RH  060%=      5-min Rain = 0
KPD4 160525Z 03003KT 05/M02 A3027 RMK A01 T00521019  RH  060%=      5-min Rain = 0
KPD4 160526Z 03003KT 05/M02 A3027 RMK A01 T00511019  RH  061%=      5-min Rain = 0
KPD4 160527Z 03003KT 05/M02 A3027 RMK A01 T00491019  RH  061%=      5-min Rain = 0
KPD4 160528Z 03003KT 05/M02 A3027 RMK A01 T00481019  RH  062%=      5-min Rain = 0
KPD4 160529Z 03003KT 05/M02 A3027 RMK A01 T00481019  RH  062%=      5-min Rain = 0
KPD4 160530Z 03003KT 05/M02 A3027 RMK A01 T00491019  RH  062%=      5-min Rain = 0
KPD4 160531Z 03003KT 05/M02 A3027 RMK A01 T00501018  RH  061%=      5-min Rain = 0
KPD4 160532Z 02003KT 05/M02 A3027 RMK A01 T00511018  RH  061%=      5-min Rain = 0
KPD4 160533Z 02003KT 05/M02 A3028 RMK A01 T00501019  RH  061%=      5-min Rain = 0
KPD4 160534Z 02003KT 05/M02 A3028 RMK A01 T00491019  RH  061%=      5-min Rain = 0
KPD4 160535Z 02003KT 05/M02 A3028 RMK A01 T00481019  RH  062%=      5-min Rain = 0
KPD4 160536Z 02003KT 05/M02 A3028 RMK A01 T00471020  RH  062%=      5-min Rain = 0
KPD4 160537Z 02003KT 05/M02 A3028 RMK A01 T00451020  RH  063%=      5-min Rain = 0
KPD4 160538Z 02003KT 04/M02 A3028 RMK A01 T00441020  RH  063%=      5-min Rain = 0
KPD4 160539Z 02003KT 04/M02 A3028 RMK A01 T00421020  RH  064%=      5-min Rain = 0
KPD4 160540Z 02003KT 04/M02 A3028 RMK A01 T00411020  RH  064%=      5-min Rain = 0
KPD4 160541Z 03003KT 04/M02 A3028 RMK A01 T00401020  RH  065%=      5-min Rain = 0
KPD4 160542Z 02003KT 04/M02 A3028 RMK A01 T00381021  RH  066%=      5-min Rain = 0
KPD4 160543Z 02002KT 04/M02 A3028 RMK A01 T00361021  RH  066%=      5-min Rain = 0
KPD4 160544Z 02002KT 04/M02 A3028 RMK A01 T00361020  RH  067%=      5-min Rain = 0
KPD4 160545Z 02002KT 04/M02 A3028 RMK A01 T00361020  RH  067%=      5-min Rain = 0
KPD4 160546Z 03002KT 04/M02 A3027 RMK A01 T00361020  RH  067%=      5-min Rain = 0
KPD4 160547Z 03002KT 04/M02 A3027 RMK A01 T00371020  RH  066%=      5-min Rain = 0
KPD4 160548Z 02002KT 04/M02 A3027 RMK A01 T00381020  RH  066%=      5-min Rain = 0
KPD4 160549Z 02002KT 04/M02 A3028 RMK A01 T00391020  RH  065%=      5-min Rain = 0
KPD4 160550Z 02002KT 04/M02 A3028 RMK A01 T00401020  RH  065%=      5-min Rain = 0
KPD4 160551Z 02002KT 04/M02 A3028 RMK A01 T00391020  RH  065%=      5-min Rain = 0
KPD4 160552Z 03002KT 04/M02 A3028 RMK A01 T00391020  RH  065%=      5-min Rain = 0
KPD4 160553Z 03002KT 04/M02 A3028 RMK A01 T00381020  RH  066%=      5-min Rain = 0
KPD4 160554Z 04002KT 04/M02 A3028 RMK A01 T00381021  RH  066%=      5-min Rain = 0
KPD4 160555Z 04001KT 04/M02 A3028 RMK A01 T00381021  RH  066%=      5-min Rain = 0
KPD4 160556Z 04001KT 04/M02 A3028 RMK A01 T00381021  RH  066%=      5-min Rain = 0
KPD4 160557Z 04001KT 04/M02 A3028 RMK A01 T00381021  RH  065%=      5-min Rain = 0
KPD4 160558Z 04000KT 04/M02 A3028 RMK A01 T00391020  RH  065%=      5-min Rain = 0
KPD4 160559Z 35000KT 04/M02 A3028 RMK A01 T00381021  RH  065%=      5-min Rain = 0
KPD4 160600Z 33000KT 04/M02 A3028 RMK A01 T00361022  RH  066%=      5-min Rain = 0
KPD4 160601Z 31001KT 04/M02 A3028 RMK A01 T00351022  RH  066%=      5-min Rain = 0
KPD4 160602Z 30001KT 03/M02 A3028 RMK A01 T00341022  RH  067%=      5-min Rain = 0
KPD4 160603Z 31001KT 03/M02 A3028 RMK A01 T00341022  RH  067%=      5-min Rain = 0
KPD4 160604Z 30001KT 03/M02 A3028 RMK A01 T00331022  RH  067%=      5-min Rain = 0
KPD4 160605Z 00000KT 03/M02 A3028 RMK A01 T00331021  RH  067%=      5-min Rain = 0
KPD4 160606Z 00000KT 03/M02 A3028 RMK A01 T00341021  RH  067%=      5-min Rain = 0
KPD4 160607Z 00000KT 04/M02 A3028 RMK A01 T00351020  RH  067%=      5-min Rain = 0
KPD4 160608Z 00000KT 04/M02 A3028 RMK A01 T00361021  RH  067%=      5-min Rain = 0
KPD4 160609Z 00000KT 04/M02 A3028 RMK A01 T00371020  RH  066%=      5-min Rain = 0
KPD4 160610Z 00000KT 04/M02 A3028 RMK A01 T00391020  RH  065%=      5-min Rain = 0
KPD4 160611Z 00000KT 04/M02 A3028 RMK A01 T00401020  RH  065%=      5-min Rain = 0
KPD4 160612Z 00000KT 04/M02 A3028 RMK A01 T00421020  RH  064%=      5-min Rain = 0
KPD4 160613Z 00000KT 04/M02 A3028 RMK A01 T00431020  RH  064%=      5-min Rain = 0
KPD4 160614Z 00000KT 04/M02 A3028 RMK A01 T00431020  RH  064%=      5-min Rain = 0
KPD4 160615Z 00000KT 04/M02 A3028 RMK A01 T00411021  RH  064%=      5-min Rain = 0
KPD4 160616Z 00000KT 04/M02 A3028 RMK A01 T00391021  RH  065%=      5-min Rain = 0
KPD4 160617Z 00000KT 04/M02 A3028 RMK A01 T00381021  RH  065%=      5-min Rain = 0
KPD4 160618Z 00000KT 04/M02 A3028 RMK A01 T00371021  RH  066%=      5-min Rain = 0
KPD4 160619Z 00000KT 04/M02 A3028 RMK A01 T00371021  RH  066%=      5-min Rain = 0
KPD4 160620Z 22000KT 04/M02 A3028 RMK A01 T00381021  RH  065%=      5-min Rain = 0
KPD4 160621Z 22001KT 04/M02 A3029 RMK A01 T00391020  RH  065%=      5-min Rain = 0
KPD4 160622Z 24002KT 04/M02 A3029 RMK A01 T00401020  RH  065%=      5-min Rain = 0
KPD4 160623Z 25003KT 04/M02 A3029 RMK A01 T00411020  RH  064%=      5-min Rain = 0
KPD4 160624Z 25003KT 04/M02 A3029 RMK A01 T00431020  RH  064%=      5-min Rain = 0
KPD4 160625Z 24003KT 04/M02 A3029 RMK A01 T00441020  RH  063%=      5-min Rain = 0
KPD4 160626Z 24003KT 04/M02 A3029 RMK A01 T00421022  RH  063%=      5-min Rain = 0
KPD4 160627Z 25003KT 04/M02 A3029 RMK A01 T00391023  RH  064%=      5-min Rain = 0
KPD4 160628Z 26003KT 04/M02 A3029 RMK A01 T00371022  RH  065%=      5-min Rain = 0
KPD4 160629Z 26003KT 04/M02 A3029 RMK A01 T00371022  RH  066%=      5-min Rain = 0
KPD4 160630Z 26003KT 04/M02 A3029 RMK A01 T00361022  RH  066%=      5-min Rain = 0
KPD4 160631Z 26002KT 04/M02 A3029 RMK A01 T00351022  RH  066%=      5-min Rain = 0
KPD4 160632Z 27002KT 03/M02 A3029 RMK A01 T00341022  RH  067%=      5-min Rain = 0
KPD4 160633Z 28002KT 03/M02 A3029 RMK A01 T00331022  RH  067%=      5-min Rain = 0
KPD4 160634Z 28002KT 03/M02 A3029 RMK A01 T00321021  RH  068%=      5-min Rain = 0
KPD4 160635Z 28003KT 03/M02 A3029 RMK A01 T00301022  RH  069%=      5-min Rain = 0
KPD4 160636Z 28003KT 03/M02 A3029 RMK A01 T00291021  RH  070%=      5-min Rain = 0
KPD4 160637Z 28003KT 03/M02 A3029 RMK A01 T00281021  RH  070%=      5-min Rain = 0
KPD4 160638Z 28003KT 03/M02 A3029 RMK A01 T00271021  RH  071%=      5-min Rain = 0
KPD4 160639Z 28003KT 03/M02 A3029 RMK A01 T00261020  RH  071%=      5-min Rain = 0
KPD4 160640Z 27003KT 03/M02 A3029 RMK A01 T00261020  RH  072%=      5-min Rain = 0
KPD4 160641Z 28003KT 03/M02 A3029 RMK A01 T00261020  RH  072%=      5-min Rain = 0
KPD4 160642Z 28003KT 03/M02 A3029 RMK A01 T00261020  RH  072%=      5-min Rain = 0
KPD4 160643Z 27003KT 03/M02 A3029 RMK A01 T00271019  RH  071%=      5-min Rain = 0
KPD4 160644Z 27003KT 03/M02 A3029 RMK A01 T00291019  RH  071%=      5-min Rain = 0
KPD4 160645Z 27003KT 03/M02 A3029 RMK A01 T00301019  RH  070%=      5-min Rain = 0
KPD4 160646Z 26003KT 03/M02 A3029 RMK A01 T00311019  RH  069%=      5-min Rain = 0
KPD4 160647Z 26003KT 03/M02 A3029 RMK A01 T00321019  RH  069%=      5-min Rain = 0
KPD4 160648Z 26003KT 03/M02 A3029 RMK A01 T00321019  RH  069%=      5-min Rain = 0
KPD4 160649Z 26003KT 03/M02 A3029 RMK A01 T00331019  RH  069%=      5-min Rain = 0
KPD4 160650Z 26003KT 03/M02 A3029 RMK A01 T00331019  RH  069%=      5-min Rain = 0
KPD4 160651Z 27003KT 03/M02 A3029 RMK A01 T00331019  RH  068%=      5-min Rain = 0
KPD4 160652Z 27003KT 03/M02 A3029 RMK A01 T00341019  RH  068%=      5-min Rain = 0
KPD4 160653Z 27003KT 03/M02 A3029 RMK A01 T00331020  RH  068%=      5-min Rain = 0
KPD4 160654Z 26003KT 03/M02 A3029 RMK A01 T00311020  RH  069%=      5-min Rain = 0
KPD4 160655Z 27004KT 03/M02 A3029 RMK A01 T00311020  RH  069%=      5-min Rain = 0
KPD4 160656Z 27004KT 03/M02 A3029 RMK A01 T00301020  RH  070%=      5-min Rain = 0
KPD4 160657Z 27004KT 03/M02 A3029 RMK A01 T00301020  RH  070%=      5-min Rain = 0
KPD4 160658Z 26004KT 03/M02 A3029 RMK A01 T00301020  RH  070%=      5-min Rain = 0
KPD4 160659Z 27004KT 03/M02 A3029 RMK A01 T00291020  RH  070%=      5-min Rain = 0
KPD4 160700Z 26004KT 03/M02 A3029 RMK A01 T00301020  RH  070%=      5-min Rain = 0
KPD4 160701Z 26004KT 03/M02 A3029 RMK A01 T00311019  RH  069%=      5-min Rain = 0
KPD4 160702Z 27004KT 03/M02 A3029 RMK A01 T00331019  RH  069%=      5-min Rain = 0
KPD4 160703Z 27004KT 03/M02 A3029 RMK A01 T00331019  RH  068%=      5-min Rain = 0
KPD4 160704Z 27003KT 03/M02 A3029 RMK A01 T00331020  RH  069%=      5-min Rain = 0
KPD4 160705Z 27003KT 03/M02 A3029 RMK A01 T00311020  RH  069%=      5-min Rain = 0
KPD4 160706Z 27003KT 03/M02 A3029 RMK A01 T00291020  RH  070%=      5-min Rain = 0
KPD4 160707Z 27004KT 03/M02 A3029 RMK A01 T00271020  RH  071%=      5-min Rain = 0
KPD4 160708Z 27004KT 03/M02 A3029 RMK A01 T00251020  RH  072%=      5-min Rain = 0
KPD4 160709Z 27005KT 02/M02 A3029 RMK A01 T00241020  RH  073%=      5-min Rain = 0
KPD4 160710Z 27005KT 02/M02 A3029 RMK A01 T00241019  RH  073%=      5-min Rain = 0
KPD4 160711Z 27005KT 02/M02 A3029 RMK A01 T00241018  RH  074%=      5-min Rain = 0
KPD4 160712Z 27004KT 02/M02 A3029 RMK A01 T00241018  RH  073%=      5-min Rain = 0
KPD4 160713Z 27004KT 03/M02 A3029 RMK A01 T00261018  RH  073%=      5-min Rain = 0
KPD4 160714Z 27004KT 03/M02 A3029 RMK A01 T00271018  RH  072%=      5-min Rain = 0
KPD4 160715Z 27004KT 03/M02 A3029 RMK A01 T00271018  RH  072%=      5-min Rain = 0
KPD4 160716Z 27005KT 03/M02 A3029 RMK A01 T00271018  RH  072%=      5-min Rain = 0
KPD4 160717Z 27005KT 03/M02 A3029 RMK A01 T00271018  RH  072%=      5-min Rain = 0
KPD4 160718Z 27005KT 03/M02 A3029 RMK A01 T00271018  RH  072%=      5-min Rain = 0
KPD4 160719Z 27005KT 03/M02 A3029 RMK A01 T00271018  RH  072%=      5-min Rain = 0
KPD4 160720Z 27006KT 03/M02 A3029 RMK A01 T00271018  RH  072%=      5-min Rain = 0
KPD4 160721Z 27006KT 03/M02 A3029 RMK A01 T00271018  RH  072%=      5-min Rain = 0
KPD4 160722Z 27006KT 03/M02 A3029 RMK A01 T00271018  RH  072%=      5-min Rain = 0
KPD4 160723Z 27006KT 03/M02 A3029 RMK A01 T00271018  RH  072%=      5-min Rain = 0
KPD4 160724Z 27006KT 03/M02 A3029 RMK A01 T00281017  RH  072%=      5-min Rain = 0
KPD4 160725Z 27006KT 03/M02 A3029 RMK A01 T00281018  RH  072%=      5-min Rain = 0
KPD4 160726Z 27006KT 03/M02 A3029 RMK A01 T00271018  RH  072%=      5-min Rain = 0
KPD4 160727Z 27005KT 03/M02 A3029 RMK A01 T00281018  RH  072%=      5-min Rain = 0
KPD4 160728Z 27005KT 03/M02 A3029 RMK A01 T00281018  RH  072%=      5-min Rain = 0
KPD4 160729Z 27005KT 03/M02 A3029 RMK A01 T00291018  RH  072%=      5-min Rain = 0
KPD4 160730Z 27005KT 03/M02 A3029 RMK A01 T00291018  RH  071%=      5-min Rain = 0
KPD4 160731Z 27005KT 03/M02 A303 RMK A01 T00291017  RH  071%=      5-min Rain = 0
KPD4 160732Z 28005KT 03/M02 A303 RMK A01 T00291017  RH  071%=      5-min Rain = 0
KPD4 160733Z 28005KT 03/M02 A303 RMK A01 T00291017  RH  071%=      5-min Rain = 0
KPD4 160734Z 28005KT 03/M02 A303 RMK A01 T00291018  RH  072%=      5-min Rain = 0
KPD4 160735Z 28005KT 03/M02 A303 RMK A01 T00281018  RH  072%=      5-min Rain = 0
KPD4 160736Z 28005KT 03/M02 A303 RMK A01 T00281018  RH  072%=      5-min Rain = 0
KPD4 160737Z 28005KT 03/M02 A303 RMK A01 T00271019  RH  072%=      5-min Rain = 0
KPD4 160738Z 28006KT 03/M02 A303 RMK A01 T00261019  RH  072%=      5-min Rain = 0
KPD4 160739Z 28006KT 03/M02 A303 RMK A01 T00251020  RH  073%=      5-min Rain = 0
KPD4 160740Z 28006KT 02/M02 A303 RMK A01 T00241019  RH  073%=      5-min Rain = 0
KPD4 160741Z 28006KT 02/M02 A303 RMK A01 T00231020  RH  073%=      5-min Rain = 0
KPD4 160742Z 28007KT 02/M02 A303 RMK A01 T00241019  RH  073%=      5-min Rain = 0
KPD4 160743Z 28007KT 02/M02 A303 RMK A01 T00231019  RH  073%=      5-min Rain = 0
KPD4 160744Z 28007KT 02/M02 A303 RMK A01 T00231020  RH  073%=      5-min Rain = 0
KPD4 160745Z 28007KT 02/M02 A303 RMK A01 T00231020  RH  073%=      5-min Rain = 0
KPD4 160746Z 28007KT 02/M02 A303 RMK A01 T00231019  RH  073%=      5-min Rain = 0
KPD4 160747Z 29007KT 02/M02 A303 RMK A01 T00231020  RH  073%=      5-min Rain = 0
KPD4 160748Z 29006KT 02/M02 A303 RMK A01 T00231020  RH  073%=      5-min Rain = 0
KPD4 160749Z 29006KT 02/M02 A303 RMK A01 T00231019  RH  073%=      5-min Rain = 0
KPD4 160750Z 28006KT 02/M02 A3029 RMK A01 T00231020  RH  073%=      5-min Rain = 0
KPD4 160751Z 29006KT 02/M02 A3029 RMK A01 T00231020  RH  073%=      5-min Rain = 0
KPD4 160752Z 29006KT 02/M02 A3029 RMK A01 T00221020  RH  073%=      5-min Rain = 0
KPD4 160753Z 28006KT 02/M02 A3029 RMK A01 T00221020  RH  073%=      5-min Rain = 0
KPD4 160754Z 29006KT 02/M02 A3029 RMK A01 T00221020  RH  073%=      5-min Rain = 0
KPD4 160755Z 29006KT 02/M02 A3029 RMK A01 T00231021  RH  073%=      5-min Rain = 0
KPD4 160756Z 29005KT 02/M02 A3029 RMK A01 T00231021  RH  073%=      5-min Rain = 0
KPD4 160757Z 29005KT 02/M02 A3029 RMK A01 T00231021  RH  073%=      5-min Rain = 0
KPD4 160758Z 28005KT 02/M02 A3029 RMK A01 T00241021  RH  072%=      5-min Rain = 0
KPD4 160759Z 29004KT 03/M02 A3029 RMK A01 T00251021  RH  072%=      5-min Rain = 0
KPD4 160800Z 28004KT 03/M02 A3029 RMK A01 T00251021  RH  072%=      5-min Rain = 0
KPD4 160801Z 28004KT 03/M02 A3029 RMK A01 T00251022  RH  071%=      5-min Rain = 0
KPD4 160802Z 28004KT 03/M02 A3029 RMK A01 T00251022  RH  071%=      5-min Rain = 0
KPD4 160803Z 27004KT 03/M02 A3029 RMK A01 T00251022  RH  071%=      5-min Rain = 0
KPD4 160804Z 27004KT 03/M02 A3029 RMK A01 T00251022  RH  071%=      5-min Rain = 0
KPD4 160805Z 27004KT 03/M02 A3029 RMK A01 T00261022  RH  071%=      5-min Rain = 0
KPD4 160806Z 27003KT 03/M02 A3029 RMK A01 T00261022  RH  071%=      5-min Rain = 0
KPD4 160807Z 27004KT 03/M02 A3029 RMK A01 T00261022  RH  071%=      5-min Rain = 0
KPD4 160808Z 28005KT 03/M02 A3029 RMK A01 T00251023  RH  071%=      5-min Rain = 0
KPD4 160809Z 28005KT 02/M02 A3029 RMK A01 T00231023  RH  072%=      5-min Rain = 0
KPD4 160810Z 29006KT 02/M02 A3029 RMK A01 T00221023  RH  072%=      5-min Rain = 0
KPD4 160811Z 29006KT 02/M02 A3029 RMK A01 T00211022  RH  073%=      5-min Rain = 0
KPD4 160812Z 29005KT 02/M02 A3029 RMK A01 T00211023  RH  073%=      5-min Rain = 0
KPD4 160813Z 29005KT 02/M02 A3029 RMK A01 T00201023  RH  073%=      5-min Rain = 0
KPD4 160814Z 28005KT 02/M02 A3029 RMK A01 T00201023  RH  073%=      5-min Rain = 0
KPD4 160815Z 28005KT 02/M02 A3029 RMK A01 T00191023  RH  074%=      5-min Rain = 0
KPD4 160816Z 28005KT 02/M02 A3029 RMK A01 T00191023  RH  074%=      5-min Rain = 0
KPD4 160817Z 28005KT 02/M02 A3029 RMK A01 T00191022  RH  074%=      5-min Rain = 0
KPD4 160818Z 28005KT 02/M02 A3029 RMK A01 T00191022  RH  074%=      5-min Rain = 0
KPD4 160819Z 28005KT 02/M02 A3029 RMK A01 T00191022  RH  074%=      5-min Rain = 0
KPD4 160820Z 28005KT 02/M02 A3029 RMK A01 T00191022  RH  074%=      5-min Rain = 0
KPD4 160821Z 28005KT 02/M02 A3029 RMK A01 T00201021  RH  074%=      5-min Rain = 0
KPD4 160822Z 28004KT 02/M02 A3029 RMK A01 T00211021  RH  074%=      5-min Rain = 0
KPD4 160823Z 28004KT 02/M02 A3029 RMK A01 T00221021  RH  074%=      5-min Rain = 0
KPD4 160824Z 28004KT 02/M02 A3029 RMK A01 T00221021  RH  073%=      5-min Rain = 0
KPD4 160825Z 28004KT 02/M02 A3029 RMK A01 T00221021  RH  073%=      5-min Rain = 0
KPD4 160826Z 28005KT 02/M02 A3029 RMK A01 T00231021  RH  073%=      5-min Rain = 0
KPD4 160827Z 28005KT 02/M02 A3029 RMK A01 T00241021  RH  073%=      5-min Rain = 0
KPD4 160828Z 28005KT 02/M02 A3029 RMK A01 T00241021  RH  072%=      5-min Rain = 0
KPD4 160829Z 29005KT 02/M02 A3029 RMK A01 T00241021  RH  072%=      5-min Rain = 0
KPD4 160830Z 29005KT 02/M02 A3029 RMK A01 T00231021  RH  072%=      5-min Rain = 0
KPD4 160831Z 28005KT 02/M02 A3029 RMK A01 T00221022  RH  073%=      5-min Rain = 0
KPD4 160832Z 28005KT 02/M02 A3029 RMK A01 T00211021  RH  073%=      5-min Rain = 0
KPD4 160833Z 28005KT 02/M02 A3029 RMK A01 T00211021  RH  074%=      5-min Rain = 0
KPD4 160834Z 28004KT 02/M02 A3029 RMK A01 T00211021  RH  074%=      5-min Rain = 0
KPD4 160835Z 28004KT 02/M02 A3029 RMK A01 T00211021  RH  074%=      5-min Rain = 0
KPD4 160836Z 28005KT 02/M02 A3029 RMK A01 T00211021  RH  074%=      5-min Rain = 0
KPD4 160837Z 28005KT 02/M02 A3029 RMK A01 T00211021  RH  074%=      5-min Rain = 0
KPD4 160838Z 28006KT 02/M02 A3029 RMK A01 T00211021  RH  074%=      5-min Rain = 0
KPD4 160839Z 28006KT 02/M02 A3029 RMK A01 T00211021  RH  074%=      5-min Rain = 0
KPD4 160840Z 28006KT 02/M02 A3029 RMK A01 T00211021  RH  074%=      5-min Rain = 0
KPD4 160841Z 28006KT 02/M02 A3029 RMK A01 T00201021  RH  074%=      5-min Rain = 0
KPD4 160842Z 28006KT 02/M02 A3029 RMK A01 T00201021  RH  074%=      5-min Rain = 0
KPD4 160843Z 28006KT 02/M02 A3029 RMK A01 T00211021  RH  074%=      5-min Rain = 0
KPD4 160844Z 28006KT 02/M02 A3029 RMK A01 T00201021  RH  074%=      5-min Rain = 0
KPD4 160845Z 28006KT 02/M02 A3029 RMK A01 T00201021  RH  075%=      5-min Rain = 0
KPD4 160846Z 28006KT 02/M02 A3029 RMK A01 T00191021  RH  075%=      5-min Rain = 0
KPD4 160847Z 28006KT 02/M02 A3029 RMK A01 T00191020  RH  075%=      5-min Rain = 0
KPD4 160848Z 28006KT 02/M02 A3029 RMK A01 T00191020  RH  075%=      5-min Rain = 0
KPD4 160849Z 28007KT 02/M02 A3029 RMK A01 T00191020  RH  075%=      5-min Rain = 0
KPD4 160850Z 28007KT 02/M02 A3029 RMK A01 T00191020  RH  075%=      5-min Rain = 0
KPD4 160851Z 29007KT 02/M02 A3029 RMK A01 T00201020  RH  075%=      5-min Rain = 0
KPD4 160852Z 29008KT 02/M02 A3029 RMK A01 T00201020  RH  075%=      5-min Rain = 0
KPD4 160853Z 29008KT 02/M02 A3029 RMK A01 T00201020  RH  075%=      5-min Rain = 0
KPD4 160854Z 28008KT 02/M02 A3029 RMK A01 T00201019  RH  075%=      5-min Rain = 0
KPD4 160855Z 28008KT 02/M02 A3029 RMK A01 T00201019  RH  075%=      5-min Rain = 0
KPD4 160856Z 28009KT 02/M02 A3029 RMK A01 T00201019  RH  075%=      5-min Rain = 0
KPD4 160857Z 28009KT 02/M02 A3029 RMK A01 T00201019  RH  075%=      5-min Rain = 0
KPD4 160858Z 28008KT 02/M02 A3029 RMK A01 T00201019  RH  075%=      5-min Rain = 0
KPD4 160859Z 28008KT 02/M02 A3029 RMK A01 T00201019  RH  075%=      5-min Rain = 0
KPD4 160900Z 28009KT 02/M02 A3029 RMK A01 T00201020  RH  075%=      5-min Rain = 0
KPD4 160901Z 28009KT 02/M02 A3029 RMK A01 T00191020  RH  075%=      5-min Rain = 0
KPD4 160902Z 28009KT 02/M02 A3029 RMK A01 T00191020  RH  075%=      5-min Rain = 0
KPD4 160903Z 28008KT 02/M02 A3029 RMK A01 T00181020  RH  076%=      5-min Rain = 0
KPD4 160904Z 28008KT 02/M02 A3029 RMK A01 T00181020  RH  076%=      5-min Rain = 0
KPD4 160905Z 28008KT 02/M02 A3029 RMK A01 T00181020  RH  076%=      5-min Rain = 0
KPD4 160906Z 28008KT 02/M02 A3029 RMK A01 T00181021  RH  076%=      5-min Rain = 0
KPD4 160907Z 28007KT 02/M02 A3029 RMK A01 T00181021  RH  076%=      5-min Rain = 0
KPD4 160908Z 28007KT 02/M02 A3029 RMK A01 T00181021  RH  075%=      5-min Rain = 0
KPD4 160909Z 28006KT 02/M02 A3029 RMK A01 T00181021  RH  075%=      5-min Rain = 0
KPD4 160910Z 28006KT 02/M02 A3029 RMK A01 T00181021  RH  075%=      5-min Rain = 0
KPD4 160911Z 28006KT 02/M02 A3029 RMK A01 T00181021  RH  075%=      5-min Rain = 0
KPD4 160912Z 28006KT 02/M02 A3029 RMK A01 T00171022  RH  075%=      5-min Rain = 0
KPD4 160913Z 28006KT 02/M02 A3029 RMK A01 T00161022  RH  076%=      5-min Rain = 0
KPD4 160914Z 28006KT 02/M02 A3029 RMK A01 T00151023  RH  076%=      5-min Rain = 0
KPD4 160915Z 28006KT 01/M02 A3029 RMK A01 T00141022  RH  077%=      5-min Rain = 0
KPD4 160916Z 28006KT 01/M02 A3029 RMK A01 T00141022  RH  077%=      5-min Rain = 0
KPD4 160917Z 28006KT 01/M02 A3029 RMK A01 T00141022  RH  077%=      5-min Rain = 0
KPD4 160918Z 28006KT 01/M02 A3029 RMK A01 T00141022  RH  077%=      5-min Rain = 0
KPD4 160919Z 28006KT 01/M02 A3029 RMK A01 T00141023  RH  077%=      5-min Rain = 0
KPD4 160920Z 28006KT 01/M02 A3029 RMK A01 T00131023  RH  077%=      5-min Rain = 0
KPD4 160921Z 28006KT 01/M02 A3029 RMK A01 T00121023  RH  077%=      5-min Rain = 0
KPD4 160922Z 28005KT 01/M02 A3029 RMK A01 T00121023  RH  078%=      5-min Rain = 0
KPD4 160923Z 28005KT 01/M02 A3029 RMK A01 T00131023  RH  077%=      5-min Rain = 0
KPD4 160924Z 28005KT 01/M02 A3029 RMK A01 T00131023  RH  077%=      5-min Rain = 0
KPD4 160925Z 28005KT 01/M02 A3029 RMK A01 T00131023  RH  077%=      5-min Rain = 0
KPD4 160926Z 28006KT 01/M02 A3029 RMK A01 T00131023  RH  077%=      5-min Rain = 0
KPD4 160927Z 28006KT 01/M02 A3029 RMK A01 T00131023  RH  077%=      5-min Rain = 0
KPD4 160928Z 28005KT 01/M02 A3029 RMK A01 T00111024  RH  078%=      5-min Rain = 0
KPD4 160929Z 27005KT 01/M03 A3029 RMK A01 T00101025  RH  078%=      5-min Rain = 0
KPD4 160930Z 27006KT 01/M03 A3029 RMK A01 T00081025  RH  079%=      5-min Rain = 0
KPD4 160931Z 27005KT 01/M02 A3029 RMK A01 T00081024  RH  079%=      5-min Rain = 0
KPD4 160932Z 27005KT 01/M02 A3029 RMK A01 T00081024  RH  079%=      5-min Rain = 0
KPD4 160933Z 27006KT 01/M02 A3029 RMK A01 T00091024  RH  079%=      5-min Rain = 0
KPD4 160934Z 27005KT 01/M02 A3029 RMK A01 T00091024  RH  079%=      5-min Rain = 0
KPD4 160935Z 28006KT 01/M02 A3029 RMK A01 T00091024  RH  079%=      5-min Rain = 0
KPD4 160936Z 28007KT 01/M02 A3029 RMK A01 T00091024  RH  079%=      5-min Rain = 0
KPD4 160937Z 28007KT 01/M02 A3029 RMK A01 T00101023  RH  079%=      5-min Rain = 0
KPD4 160938Z 28007KT 01/M02 A3029 RMK A01 T00111022  RH  078%=      5-min Rain = 0
KPD4 160939Z 28008KT 01/M02 A3029 RMK A01 T00121022  RH  078%=      5-min Rain = 0
KPD4 160940Z 28008KT 01/M02 A3029 RMK A01 T00131021  RH  078%=      5-min Rain = 0
KPD4 160941Z 28007KT 01/M02 A3029 RMK A01 T00141021  RH  077%=      5-min Rain = 0
KPD4 160942Z 28007KT 02/M02 A3029 RMK A01 T00151021  RH  077%=      5-min Rain = 0
KPD4 160943Z 28007KT 02/M02 A3029 RMK A01 T00161021  RH  076%=      5-min Rain = 0
KPD4 160944Z 28007KT 02/M02 A3029 RMK A01 T00161021  RH  076%=      5-min Rain = 0
KPD4 160945Z 28007KT 02/M02 A3029 RMK A01 T00161021  RH  076%=      5-min Rain = 0
KPD4 160946Z 28006KT 02/M02 A3029 RMK A01 T00161021  RH  076%=      5-min Rain = 0
KPD4 160947Z 28006KT 02/M02 A3029 RMK A01 T00161022  RH  076%=      5-min Rain = 0
KPD4 160948Z 28006KT 02/M02 A3029 RMK A01 T00161022  RH  076%=      5-min Rain = 0
KPD4 160949Z 28006KT 02/M02 A3029 RMK A01 T00161022  RH  076%=      5-min Rain = 0
KPD4 160950Z 28007KT 02/M02 A3029 RMK A01 T00151022  RH  076%=      5-min Rain = 0
KPD4 160951Z 28007KT 02/M02 A3029 RMK A01 T00151022  RH  077%=      5-min Rain = 0
KPD4 160952Z 28007KT 02/M02 A3029 RMK A01 T00151022  RH  077%=      5-min Rain = 0
KPD4 160953Z 28007KT 02/M02 A3029 RMK A01 T00151022  RH  077%=      5-min Rain = 0
KPD4 160954Z 28005KT 01/M02 A3029 RMK A01 T00141023  RH  077%=      5-min Rain = 0
KPD4 160955Z 28005KT 01/M02 A3029 RMK A01 T00111024  RH  077%=      5-min Rain = 0
KPD4 160956Z 28007KT 01/M02 A3029 RMK A01 T00101024  RH  078%=      5-min Rain = 0
KPD4 160957Z 28006KT 01/M02 A3029 RMK A01 T00101023  RH  078%=      5-min Rain = 0
KPD4 160958Z 28006KT 01/M02 A3029 RMK A01 T00101023  RH  078%=      5-min Rain = 0
KPD4 160959Z 28006KT 01/M02 A3029 RMK A01 T00101023  RH  078%=      5-min Rain = 0
KPD4 161000Z 28007KT 01/M02 A3029 RMK A01 T00101023  RH  078%=      5-min Rain = 0
KPD4 161001Z 28006KT 01/M02 A3029 RMK A01 T00101024  RH  078%=      5-min Rain = 0
KPD4 161002Z 28005KT 01/M02 A3029 RMK A01 T00101024  RH  078%=      5-min Rain = 0
KPD4 161003Z 27003KT 01/M02 A3029 RMK A01 T00091024  RH  078%=      5-min Rain = 0
KPD4 161004Z 28003KT 01/M02 A3029 RMK A01 T00091023  RH  079%=      5-min Rain = 0
KPD4 161005Z 28003KT 01/M02 A3029 RMK A01 T00091024  RH  079%=      5-min Rain = 0
KPD4 161006Z 27003KT 01/M02 A3029 RMK A01 T00091024  RH  078%=      5-min Rain = 0
KPD4 161007Z 26002KT 01/M02 A3029 RMK A01 T00101023  RH  078%=      5-min Rain = 0
KPD4 161008Z 24002KT 01/M02 A3029 RMK A01 T00111023  RH  078%=      5-min Rain = 0
KPD4 161009Z 19001KT 01/M02 A3029 RMK A01 T00121023  RH  078%=      5-min Rain = 0
KPD4 161010Z 15000KT 01/M02 A3029 RMK A01 T00121023  RH  078%=      5-min Rain = 0
KPD4 161011Z 26001KT 01/M02 A3029 RMK A01 T00121022  RH  078%=      5-min Rain = 0
KPD4 161012Z 26002KT 01/M02 A3029 RMK A01 T00131022  RH  077%=      5-min Rain = 0
KPD4 161013Z 26002KT 01/M02 A3029 RMK A01 T00141022  RH  077%=      5-min Rain = 0
KPD4 161014Z 27001KT 01/M02 A3029 RMK A01 T00131023  RH  077%=      5-min Rain = 0
KPD4 161015Z 26001KT 01/M02 A3029 RMK A01 T00131023  RH  077%=      5-min Rain = 0
KPD4 161016Z 25001KT 01/M02 A3029 RMK A01 T00131023  RH  077%=      5-min Rain = 0
KPD4 161017Z 26002KT 01/M02 A3029 RMK A01 T00131023  RH  077%=      5-min Rain = 0
KPD4 161018Z 25002KT 01/M02 A3029 RMK A01 T00141022  RH  077%=      5-min Rain = 0
KPD4 161019Z 25003KT 02/M02 A3029 RMK A01 T00151022  RH  077%=      5-min Rain = 0
KPD4 161020Z 25003KT 02/M02 A3029 RMK A01 T00151022  RH  076%=      5-min Rain = 0
KPD4 161021Z 25003KT 02/M02 A3029 RMK A01 T00151022  RH  076%=      5-min Rain = 0
KPD4 161022Z 24003KT 02/M02 A3029 RMK A01 T00171021  RH  076%=      5-min Rain = 0
KPD4 161023Z 23002KT 02/M02 A3029 RMK A01 T00171022  RH  075%=      5-min Rain = 0
KPD4 161024Z 24002KT 02/M02 A3028 RMK A01 T00171022  RH  075%=      5-min Rain = 0
KPD4 161025Z 25003KT 02/M02 A3028 RMK A01 T00171023  RH  075%=      5-min Rain = 0
KPD4 161026Z 25003KT 02/M02 A3028 RMK A01 T00171022  RH  076%=      5-min Rain = 0
KPD4 161027Z 25003KT 02/M02 A3028 RMK A01 T00181021  RH  075%=      5-min Rain = 0
KPD4 161028Z 24003KT 02/M02 A3028 RMK A01 T00191022  RH  074%=      5-min Rain = 0
KPD4 161029Z 22001KT 02/M02 A3028 RMK A01 T00191023  RH  074%=      5-min Rain = 0
KPD4 161030Z 20001KT 02/M02 A3029 RMK A01 T00181023  RH  074%=      5-min Rain = 0
KPD4 161031Z 20001KT 02/M02 A3029 RMK A01 T00171023  RH  074%=      5-min Rain = 0
KPD4 161032Z 22002KT 02/M02 A3029 RMK A01 T00171023  RH  075%=      5-min Rain = 0
KPD4 161033Z 23003KT 02/M02 A3029 RMK A01 T00171022  RH  075%=      5-min Rain = 0
KPD4 161034Z 23003KT 02/M02 A3029 RMK A01 T00171022  RH  075%=      5-min Rain = 0
KPD4 161035Z 23003KT 02/M02 A3028 RMK A01 T00171022  RH  075%=      5-min Rain = 0
KPD4 161036Z 23002KT 02/M02 A3028 RMK A01 T00181022  RH  075%=      5-min Rain = 0
KPD4 161037Z 25003KT 02/M02 A3028 RMK A01 T00171022  RH  075%=      5-min Rain = 0
KPD4 161038Z 26004KT 02/M02 A3028 RMK A01 T00171021  RH  076%=      5-min Rain = 0
KPD4 161039Z 26003KT 02/M02 A3028 RMK A01 T00181022  RH  075%=      5-min Rain = 0
KPD4 161040Z 24003KT 02/M02 A3028 RMK A01 T00171022  RH  075%=      5-min Rain = 0
KPD4 161041Z 24003KT 02/M02 A3028 RMK A01 T00171022  RH  076%=      5-min Rain = 0
KPD4 161042Z 25004KT 02/M02 A3028 RMK A01 T00171022  RH  076%=      5-min Rain = 0
KPD4 161043Z 26005KT 02/M02 A3028 RMK A01 T00161023  RH  075%=      5-min Rain = 0
KPD4 161044Z 26005KT 01/M03 A3028 RMK A01 T00141025  RH  076%=      5-min Rain = 0
KPD4 161045Z 25004KT 01/M03 A3028 RMK A01 T00111026  RH  076%=      5-min Rain = 0
KPD4 161046Z 24004KT 01/M03 A3028 RMK A01 T00091025  RH  078%=      5-min Rain = 0
KPD4 161047Z 24004KT 01/M02 A3028 RMK A01 T00091024  RH  079%=      5-min Rain = 0
KPD4 161048Z 25004KT 01/M02 A3028 RMK A01 T00091024  RH  079%=      5-min Rain = 0
KPD4 161049Z 25004KT 01/M02 A3028 RMK A01 T00091023  RH  079%=      5-min Rain = 0
KPD4 161050Z 25004KT 01/M02 A3028 RMK A01 T00091023  RH  079%=      5-min Rain = 0
KPD4 161051Z 25004KT 01/M02 A3028 RMK A01 T00091023  RH  079%=      5-min Rain = 0
KPD4 161052Z 25003KT 01/M02 A3028 RMK A01 T00091023  RH  079%=      5-min Rain = 0
KPD4 161053Z 25003KT 01/M02 A3028 RMK A01 T00081024  RH  079%=      5-min Rain = 0
KPD4 161054Z 26002KT 01/M03 A3028 RMK A01 T00071026  RH  079%=      5-min Rain = 0
KPD4 161055Z 26001KT 01/M03 A3028 RMK A01 T00051027  RH  079%=      5-min Rain = 0
KPD4 161056Z 26001KT 00/M03 A3028 RMK A01 T00041027  RH  079%=      5-min Rain = 0
KPD4 161057Z 27001KT 00/M03 A3028 RMK A01 T00041027  RH  080%=      5-min Rain = 0
KPD4 161058Z 27002KT 00/M03 A3028 RMK A01 T00031026  RH  080%=      5-min Rain = 0
KPD4 161059Z 27002KT 00/M03 A3028 RMK A01 T00031026  RH  081%=      5-min Rain = 0
KPD4 161100Z 27003KT 01/M03 A3028 RMK A01 T00051025  RH  081%=      5-min Rain = 0
KPD4 161101Z 27003KT 01/M02 A3028 RMK A01 T00061024  RH  080%=      5-min Rain = 0
KPD4 161102Z 27003KT 01/M02 A3028 RMK A01 T00081024  RH  079%=      5-min Rain = 0
KPD4 161103Z 27003KT 01/M02 A3028 RMK A01 T00091024  RH  079%=      5-min Rain = 0
KPD4 161104Z 27003KT 01/M02 A3028 RMK A01 T00091024  RH  078%=      5-min Rain = 0
KPD4 161105Z 27003KT 01/M02 A3028 RMK A01 T00101024  RH  078%=      5-min Rain = 0
KPD4 161106Z 26003KT 01/M03 A3028 RMK A01 T00091025  RH  078%=      5-min Rain = 0
KPD4 161107Z 25003KT 01/M03 A3028 RMK A01 T00081026  RH  078%=      5-min Rain = 0
KPD4 161108Z 26004KT 01/M03 A3028 RMK A01 T00071026  RH  079%=      5-min Rain = 0
KPD4 161109Z 26004KT 01/M03 A3028 RMK A01 T00061026  RH  079%=      5-min Rain = 0
KPD4 161110Z 27004KT 01/M03 A3028 RMK A01 T00061025  RH  080%=      5-min Rain = 0
KPD4 161111Z 27004KT 01/M03 A3028 RMK A01 T00061025  RH  080%=      5-min Rain = 0
KPD4 161112Z 27003KT 01/M03 A3027 RMK A01 T00061025  RH  080%=      5-min Rain = 0
KPD4 161113Z 26003KT 01/M03 A3027 RMK A01 T00061026  RH  080%=      5-min Rain = 0
KPD4 161114Z 26003KT 00/M03 A3027 RMK A01 T00041026  RH  080%=      5-min Rain = 0
KPD4 161115Z 26003KT 00/M03 A3027 RMK A01 T00041026  RH  080%=      5-min Rain = 0
KPD4 161116Z 25003KT 00/M03 A3027 RMK A01 T00041026  RH  081%=      5-min Rain = 0
KPD4 161117Z 25003KT 00/M03 A3027 RMK A01 T00031026  RH  081%=      5-min Rain = 0
KPD4 161118Z 25003KT 00/M03 A3027 RMK A01 T00031026  RH  081%=      5-min Rain = 0
KPD4 161119Z 25004KT 00/M03 A3027 RMK A01 T00031026  RH  081%=      5-min Rain = 0
KPD4 161120Z 25004KT 00/M03 A3027 RMK A01 T00021026  RH  081%=      5-min Rain = 0
KPD4 161121Z 26005KT 00/M03 A3027 RMK A01 T00021027  RH  081%=      5-min Rain = 0
KPD4 161122Z 25005KT 00/M03 A3027 RMK A01 T00011026  RH  082%=      5-min Rain = 0
KPD4 161123Z 24005KT 00/M03 A3027 RMK A01 T00021026  RH  082%=      5-min Rain = 0
KPD4 161124Z 24004KT 00/M03 A3027 RMK A01 T00021027  RH  081%=      5-min Rain = 0
KPD4 161125Z 24004KT 00/M03 A3027 RMK A01 T00021027  RH  081%=      5-min Rain = 0
KPD4 161126Z 24003KT 00/M03 A3027 RMK A01 T00011027  RH  082%=      5-min Rain = 0
KPD4 161127Z 24003KT 00/M03 A3027 RMK A01 T00011027  RH  082%=      5-min Rain = 0
KPD4 161128Z 23003KT 00/M03 A3027 RMK A01 T00011026  RH  082%=      5-min Rain = 0
KPD4 161129Z 23003KT 00/M03 A3027 RMK A01 T00011026  RH  082%=      5-min Rain = 0
KPD4 161130Z 24003KT 00/M03 A3027 RMK A01 T00011026  RH  082%=      5-min Rain = 0
KPD4 161131Z 24004KT 00/M03 A3027 RMK A01 T00021026  RH  082%=      5-min Rain = 0
KPD4 161132Z 24004KT 00/M03 A3027 RMK A01 T00021026  RH  082%=      5-min Rain = 0
KPD4 161133Z 24004KT 00/M03 A3027 RMK A01 T00021026  RH  082%=      5-min Rain = 0
KPD4 161134Z 24003KT 00/M03 A3027 RMK A01 T00021025  RH  082%=      5-min Rain = 0
KPD4 161135Z 24003KT 00/M03 A3027 RMK A01 T00021025  RH  082%=      5-min Rain = 0
KPD4 161136Z 24003KT 00/M03 A3027 RMK A01 T00021025  RH  082%=      5-min Rain = 0
KPD4 161137Z 24003KT 00/M03 A3027 RMK A01 T00021025  RH  082%=      5-min Rain = 0
KPD4 161138Z 23003KT 00/M03 A3027 RMK A01 T00021025  RH  082%=      5-min Rain = 0
KPD4 161139Z 23003KT 00/M03 A3027 RMK A01 T00011026  RH  082%=      5-min Rain = 0
KPD4 161140Z 23004KT 00/03 A3027 RMK A01 T00000-26  RH  083%=      5-min Rain = 0
KPD4 161141Z 24004KT 00/03 A3027 RMK A01 T00000-26  RH  083%=      5-min Rain = 0
KPD4 161142Z 25005KT 00/03 A3027 RMK A01 T00000-26  RH  083%=      5-min Rain = 0
KPD4 161143Z 25005KT M00/M03 A3027 RMK A01 T10011026  RH  083%=      5-min Rain = 0
KPD4 161144Z 25005KT M00/M03 A3027 RMK A01 T10021026  RH  083%=      5-min Rain = 0
KPD4 161145Z 25005KT M00/M03 A3027 RMK A01 T10021027  RH  084%=      5-min Rain = 0
KPD4 161146Z 25005KT M00/M03 A3027 RMK A01 T10031027  RH  084%=      5-min Rain = 0
KPD4 161147Z 25005KT M00/M03 A3027 RMK A01 T10031026  RH  084%=      5-min Rain = 0
KPD4 161148Z 25005KT M00/M03 A3027 RMK A01 T10031026  RH  084%=      5-min Rain = 0
KPD4 161149Z 26005KT M00/M03 A3027 RMK A01 T10031026  RH  084%=      5-min Rain = 0
KPD4 161150Z 26004KT M00/M03 A3027 RMK A01 T10031027  RH  084%=      5-min Rain = 0
KPD4 161151Z 27004KT M00/M03 A3027 RMK A01 T10031026  RH  084%=      5-min Rain = 0
KPD4 161152Z 26004KT M00/M03 A3027 RMK A01 T10031026  RH  084%=      5-min Rain = 0
KPD4 161153Z 26004KT M00/M03 A3027 RMK A01 T10031026  RH  085%=      5-min Rain = 0
KPD4 161154Z 26004KT M00/M03 A3027 RMK A01 T10031026  RH  085%=      5-min Rain = 0
KPD4 161155Z 26004KT M00/M03 A3027 RMK A01 T10031025  RH  085%=      5-min Rain = 0
KPD4 161156Z 26004KT M00/M03 A3027 RMK A01 T10031026  RH  084%=      5-min Rain = 0
KPD4 161157Z 26005KT M00/M03 A3027 RMK A01 T10021026  RH  084%=      5-min Rain = 0
KPD4 161158Z 26005KT M00/M03 A3027 RMK A01 T10021026  RH  084%=      5-min Rain = 0
KPD4 161159Z 26005KT M00/M03 A3027 RMK A01 T10031027  RH  084%=      5-min Rain = 0
KPD4 161200Z 26005KT M00/M03 A3027 RMK A01 T10031027  RH  084%=      5-min Rain = 0
KPD4 161201Z 26005KT M00/M03 A3027 RMK A01 T10031027  RH  084%=      5-min Rain = 0
KPD4 161202Z 26005KT M00/M03 A3026 RMK A01 T10031027  RH  084%=      5-min Rain = 0
KPD4 161203Z 26004KT M00/M03 A3026 RMK A01 T10031027  RH  084%=      5-min Rain = 0
KPD4 161204Z 26004KT M00/M03 A3026 RMK A01 T10041027  RH  084%=      5-min Rain = 0
KPD4 161205Z 25004KT M00/M03 A3026 RMK A01 T10041028  RH  084%=      5-min Rain = 0
KPD4 161206Z 25004KT M00/M03 A3026 RMK A01 T10041028  RH  084%=      5-min Rain = 0
KPD4 161207Z 26004KT M01/M03 A3026 RMK A01 T10051027  RH  085%=      5-min Rain = 0
KPD4 161208Z 26005KT M00/M03 A3026 RMK A01 T10041026  RH  085%=      5-min Rain = 0
KPD4 161209Z 27005KT M00/M03 A3026 RMK A01 T10031026  RH  084%=      5-min Rain = 0
KPD4 161210Z 27005KT M00/M03 A3026 RMK A01 T10031027  RH  084%=      5-min Rain = 0
KPD4 161211Z 27005KT M00/M03 A3026 RMK A01 T10041028  RH  084%=      5-min Rain = 0
KPD4 161212Z 27005KT M01/M03 A3026 RMK A01 T10051029  RH  084%=      5-min Rain = 0
KPD4 161213Z 28005KT M01/M03 A3026 RMK A01 T10051029  RH  084%=      5-min Rain = 0
KPD4 161214Z 28005KT M01/M03 A3026 RMK A01 T10061029  RH  084%=      5-min Rain = 0
KPD4 161215Z 28005KT M01/M03 A3026 RMK A01 T10061029  RH  084%=      5-min Rain = 0
KPD4 161216Z 28005KT M01/M03 A3026 RMK A01 T10061029  RH  084%=      5-min Rain = 0
KPD4 161217Z 27005KT M01/M03 A3026 RMK A01 T10061029  RH  084%=      5-min Rain = 0
KPD4 161218Z 27004KT M01/M03 A3026 RMK A01 T10071030  RH  084%=      5-min Rain = 0
KPD4 161219Z 27004KT M01/M03 A3026 RMK A01 T10081031  RH  084%=      5-min Rain = 0
KPD4 161220Z 27004KT M01/M03 A3026 RMK A01 T10101032  RH  085%=      5-min Rain = 0
KPD4 161221Z 27005KT M01/M03 A3026 RMK A01 T10101031  RH  086%=      5-min Rain = 0
KPD4 161222Z 27005KT M01/M03 A3026 RMK A01 T10111031  RH  086%=      5-min Rain = 0
KPD4 161223Z 27005KT M01/M03 A3026 RMK A01 T10111031  RH  086%=      5-min Rain = 0
KPD4 161224Z 27005KT M01/M03 A3026 RMK A01 T10101030  RH  086%=      5-min Rain = 0
KPD4 161225Z 27005KT M01/M03 A3026 RMK A01 T10091029  RH  087%=      5-min Rain = 0
KPD4 161226Z 27005KT M01/M03 A3026 RMK A01 T10081028  RH  086%=      5-min Rain = 0
KPD4 161227Z 27004KT M01/M03 A3026 RMK A01 T10071028  RH  086%=      5-min Rain = 0
KPD4 161228Z 26003KT M01/M03 A3026 RMK A01 T10081029  RH  085%=      5-min Rain = 0
KPD4 161229Z 26002KT M01/M03 A3026 RMK A01 T10091030  RH  085%=      5-min Rain = 0
KPD4 161230Z 26002KT M01/M03 A3026 RMK A01 T10091030  RH  086%=      5-min Rain = 0
KPD4 161231Z 26002KT M01/M03 A3026 RMK A01 T10101031  RH  086%=      5-min Rain = 0
KPD4 161232Z 26003KT M01/M03 A3026 RMK A01 T10101029  RH  087%=      5-min Rain = 0
KPD4 161233Z 27004KT M01/M03 A3026 RMK A01 T10091027  RH  087%=      5-min Rain = 0
KPD4 161234Z 27004KT M01/M03 A3026 RMK A01 T10061026  RH  087%=      5-min Rain = 0
KPD4 161235Z 27005KT M01/M03 A3026 RMK A01 T10051026  RH  086%=      5-min Rain = 0
KPD4 161236Z 27005KT M00/M03 A3026 RMK A01 T10041026  RH  085%=      5-min Rain = 0
KPD4 161237Z 27005KT M00/M03 A3026 RMK A01 T10041026  RH  085%=      5-min Rain = 0
KPD4 161238Z 27004KT M00/M03 A3026 RMK A01 T10031027  RH  084%=      5-min Rain = 0
KPD4 161239Z 26004KT M00/M03 A3026 RMK A01 T10041027  RH  084%=      5-min Rain = 0
KPD4 161240Z 26003KT M01/M03 A3026 RMK A01 T10051029  RH  084%=      5-min Rain = 0
KPD4 161241Z 26003KT M01/M03 A3026 RMK A01 T10061029  RH  084%=      5-min Rain = 0
KPD4 161242Z 25002KT M01/M03 A3026 RMK A01 T10071029  RH  085%=      5-min Rain = 0
KPD4 161243Z 25002KT M01/M03 A3026 RMK A01 T10071028  RH  086%=      5-min Rain = 0
KPD4 161244Z 25003KT M01/M03 A3026 RMK A01 T10061027  RH  086%=      5-min Rain = 0
KPD4 161245Z 26004KT M01/M03 A3026 RMK A01 T10061027  RH  086%=      5-min Rain = 0
KPD4 161246Z 26004KT M01/M03 A3026 RMK A01 T10061027  RH  086%=      5-min Rain = 0
KPD4 161247Z 26004KT M01/M03 A3026 RMK A01 T10061027  RH  086%=      5-min Rain = 0
KPD4 161248Z 25004KT M01/M03 A3026 RMK A01 T10051026  RH  086%=      5-min Rain = 0
KPD4 161249Z 25004KT M01/M03 A3026 RMK A01 T10051027  RH  085%=      5-min Rain = 0
KPD4 161250Z 24003KT M01/M03 A3026 RMK A01 T10061027  RH  085%=      5-min Rain = 0
KPD4 161251Z 24003KT M01/M03 A3026 RMK A01 T10071028  RH  085%=      5-min Rain = 0
KPD4 161252Z 24003KT M01/M03 A3026 RMK A01 T10081029  RH  086%=      5-min Rain = 0
KPD4 161253Z 23003KT M01/M03 A3026 RMK A01 T10091029  RH  086%=      5-min Rain = 0
KPD4 161254Z 23003KT M01/M03 A3026 RMK A01 T10081028  RH  087%=      5-min Rain = 0
KPD4 161255Z 24003KT M01/M03 A3026 RMK A01 T10091028  RH  087%=      5-min Rain = 0
KPD4 161256Z 25003KT M01/M03 A3026 RMK A01 T10091028  RH  087%=      5-min Rain = 0
KPD4 161257Z 26003KT M01/M03 A3026 RMK A01 T10071026  RH  087%=      5-min Rain = 0
KPD4 161258Z 26004KT M01/M03 A3026 RMK A01 T10061025  RH  087%=      5-min Rain = 0
KPD4 161259Z 26004KT M01/M03 A3026 RMK A01 T10051026  RH  086%=      5-min Rain = 0
KPD4 161300Z 25004KT M01/M03 A3026 RMK A01 T10051026  RH  086%=      5-min Rain = 0
KPD4 161301Z 25004KT M01/M03 A3026 RMK A01 T10051027  RH  085%=      5-min Rain = 0
KPD4 161302Z 25004KT M01/M03 A3026 RMK A01 T10051026  RH  085%=      5-min Rain = 0
KPD4 161303Z 25004KT M00/M03 A3026 RMK A01 T10041026  RH  085%=      5-min Rain = 0
KPD4 161304Z 25005KT M00/M03 A3026 RMK A01 T10031025  RH  085%=      5-min Rain = 0
KPD4 161305Z 25005KT M00/M03 A3026 RMK A01 T10031025  RH  085%=      5-min Rain = 0
KPD4 161306Z 25004KT M00/M03 A3026 RMK A01 T10021025  RH  085%=      5-min Rain = 0
KPD4 161307Z 25004KT M00/M02 A3026 RMK A01 T10011024  RH  085%=      5-min Rain = 0
KPD4 161308Z 26004KT M00/M02 A3026 RMK A01 T10011024  RH  084%=      5-min Rain = 0
KPD4 161309Z 26004KT M00/M02 A3026 RMK A01 T10011024  RH  084%=      5-min Rain = 0
KPD4 161310Z 26004KT 00/02 A3026 RMK A01 T00-00-24  RH  084%=      5-min Rain = 0
KPD4 161311Z 26004KT 00/02 A3026 RMK A01 T00000-24  RH  084%=      5-min Rain = 0
KPD4 161312Z 26005KT 00/M02 A3026 RMK A01 T00011024  RH  084%=      5-min Rain = 0
KPD4 161313Z 26005KT 00/M02 A3026 RMK A01 T00011024  RH  083%=      5-min Rain = 0
KPD4 161314Z 26005KT 00/M02 A3026 RMK A01 T00011024  RH  083%=      5-min Rain = 0
KPD4 161315Z 26004KT 00/M02 A3026 RMK A01 T00011024  RH  083%=      5-min Rain = 0
KPD4 161316Z 26004KT 00/M02 A3026 RMK A01 T00011024  RH  083%=      5-min Rain = 0
KPD4 161317Z 26004KT 00/M02 A3026 RMK A01 T00011023  RH  084%=      5-min Rain = 0
KPD4 161318Z 25004KT 00/M02 A3026 RMK A01 T00011023  RH  084%=      5-min Rain = 0
KPD4 161319Z 25004KT 00/M02 A3026 RMK A01 T00011022  RH  084%=      5-min Rain = 0
KPD4 161320Z 24003KT 00/M02 A3026 RMK A01 T00021022  RH  084%=      5-min Rain = 0
KPD4 161321Z 25004KT 00/M02 A3026 RMK A01 T00021021  RH  084%=      5-min Rain = 0
KPD4 161322Z 25003KT 00/M02 A3026 RMK A01 T00031021  RH  084%=      5-min Rain = 0
KPD4 161323Z 24003KT 00/M02 A3026 RMK A01 T00031021  RH  084%=      5-min Rain = 0
KPD4 161324Z 24003KT 00/M02 A3026 RMK A01 T00041021  RH  084%=      5-min Rain = 0
KPD4 161325Z 23003KT 00/M02 A3026 RMK A01 T00041020  RH  084%=      5-min Rain = 0
KPD4 161326Z 23003KT 01/M02 A3026 RMK A01 T00051019  RH  084%=      5-min Rain = 0
KPD4 161327Z 23003KT 01/M02 A3026 RMK A01 T00061018  RH  083%=      5-min Rain = 0
KPD4 161328Z 22003KT 01/M02 A3026 RMK A01 T00081018  RH  083%=      5-min Rain = 0
KPD4 161329Z 23003KT 01/M02 A3026 RMK A01 T00081018  RH  082%=      5-min Rain = 0
KPD4 161330Z 23003KT 01/M02 A3026 RMK A01 T00101018  RH  082%=      5-min Rain = 0
KPD4 161331Z 23003KT 01/M02 A3026 RMK A01 T00101018  RH  082%=      5-min Rain = 0
KPD4 161332Z 22003KT 01/M02 A3026 RMK A01 T00111017  RH  081%=      5-min Rain = 0
KPD4 161333Z 23002KT 01/M02 A3026 RMK A01 T00121017  RH  081%=      5-min Rain = 0
KPD4 161334Z 23003KT 01/M02 A3026 RMK A01 T00121018  RH  081%=      5-min Rain = 0
KPD4 161335Z 24003KT 01/M02 A3026 RMK A01 T00121019  RH  080%=      5-min Rain = 0
KPD4 161336Z 24003KT 01/M02 A3026 RMK A01 T00131018  RH  080%=      5-min Rain = 0
KPD4 161337Z 24003KT 01/M02 A3026 RMK A01 T00131017  RH  080%=      5-min Rain = 0
KPD4 161338Z 24003KT 01/M02 A3026 RMK A01 T00141016  RH  081%=      5-min Rain = 0
KPD4 161339Z 24004KT 01/M02 A3026 RMK A01 T00141016  RH  081%=      5-min Rain = 0
KPD4 161340Z 24004KT 01/M02 A3026 RMK A01 T00141015  RH  081%=      5-min Rain = 0
KPD4 161341Z 24003KT 01/M01 A3026 RMK A01 T00141012  RH  082%=      5-min Rain = 0
KPD4 161342Z 24004KT 02/M01 A3026 RMK A01 T00151011  RH  083%=      5-min Rain = 0
KPD4 161343Z 24004KT 02/M01 A3026 RMK A01 T00161010  RH  083%=      5-min Rain = 0
KPD4 161344Z 24003KT 02/M01 A3026 RMK A01 T00171009  RH  083%=      5-min Rain = 0
KPD4 161345Z 23003KT 02/M01 A3026 RMK A01 T00171009  RH  083%=      5-min Rain = 0
KPD4 161346Z 22002KT 02/M01 A3027 RMK A01 T00191008  RH  083%=      5-min Rain = 0
KPD4 161347Z 20002KT 02/M01 A3027 RMK A01 T00201007  RH  082%=      5-min Rain = 0
KPD4 161348Z 17002KT 02/M01 A3027 RMK A01 T00211006  RH  082%=      5-min Rain = 0
KPD4 161349Z 18002KT 02/M01 A3027 RMK A01 T00221007  RH  081%=      5-min Rain = 0
KPD4 161350Z 17002KT 02/M01 A3027 RMK A01 T00231009  RH  080%=      5-min Rain = 0
KPD4 161351Z 19002KT 02/M01 A3027 RMK A01 T00221011  RH  079%=      5-min Rain = 0
KPD4 161352Z 19002KT 02/M01 A3027 RMK A01 T00221009  RH  079%=      5-min Rain = 0
KPD4 161353Z 20003KT 02/M01 A3027 RMK A01 T00231007  RH  080%=      5-min Rain = 0
KPD4 161354Z 21003KT 02/M01 A3027 RMK A01 T00241006  RH  081%=      5-min Rain = 0
KPD4 161355Z 21003KT 02/M01 A3027 RMK A01 T00241007  RH  080%=      5-min Rain = 0
KPD4 161356Z 21003KT 03/M01 A3027 RMK A01 T00251005  RH  080%=      5-min Rain = 0
KPD4 161357Z 21003KT 03/M01 A3027 RMK A01 T00251005  RH  080%=      5-min Rain = 0
KPD4 161358Z 21003KT 03/M00 A3027 RMK A01 T00261004  RH  081%=      5-min Rain = 0
KPD4 161359Z 22003KT 03/M00 A3027 RMK A01 T00261004  RH  080%=      5-min Rain = 0
KPD4 161400Z 22003KT 03/M00 A3027 RMK A01 T00271004  RH  080%=      5-min Rain = 0
KPD4 161401Z 23003KT 03/M00 A3027 RMK A01 T00281002  RH  081%=      5-min Rain = 0
KPD4 161402Z 23003KT 03/M00 A3027 RMK A01 T00291002  RH  080%=      5-min Rain = 0
KPD4 161403Z 24003KT 03/M00 A3027 RMK A01 T00301002  RH  079%=      5-min Rain = 0
KPD4 161404Z 24003KT 03/00 A3027 RMK A01 T00320002  RH  081%=      5-min Rain = 0
KPD4 161405Z 24004KT 04/00 A3027 RMK A01 T00350004  RH  080%=      5-min Rain = 0
KPD4 161406Z 24004KT 04/01 A3027 RMK A01 T00390005  RH  079%=      5-min Rain = 0
KPD4 161407Z 25003KT 04/00 A3027 RMK A01 T00420004  RH  076%=      5-min Rain = 0
KPD4 161408Z 24003KT 04/00 A3027 RMK A01 T00440004  RH  075%=      5-min Rain = 0
KPD4 161409Z 23003KT 05/01 A3027 RMK A01 T00460005  RH  075%=      5-min Rain = 0
KPD4 161410Z 23002KT 05/01 A3027 RMK A01 T00470006  RH  075%=      5-min Rain = 0
KPD4 161411Z 22002KT 05/01 A3027 RMK A01 T00480005  RH  074%=      5-min Rain = 0
KPD4 161412Z 21002KT 05/00 A3027 RMK A01 T00490004  RH  073%=      5-min Rain = 0
KPD4 161413Z 21002KT 05/01 A3027 RMK A01 T00500006  RH  073%=      5-min Rain = 0
KPD4 161414Z 21002KT 05/01 A3027 RMK A01 T00510005  RH  072%=      5-min Rain = 0
KPD4 161415Z 22002KT 05/01 A3027 RMK A01 T00520005  RH  072%=      5-min Rain = 0
KPD4 161416Z 23002KT 05/01 A3027 RMK A01 T00520005  RH  071%=      5-min Rain = 0
KPD4 161417Z 23002KT 05/01 A3027 RMK A01 T00530006  RH  071%=      5-min Rain = 0
KPD4 161418Z 24003KT 05/01 A3027 RMK A01 T00540008  RH  072%=      5-min Rain = 0
KPD4 161419Z 24003KT 06/01 A3027 RMK A01 T00550009  RH  072%=      5-min Rain = 0
KPD4 161420Z 24003KT 06/01 A3027 RMK A01 T00580010  RH  072%=      5-min Rain = 0
KPD4 161421Z 24004KT 06/01 A3027 RMK A01 T00610009  RH  069%=      5-min Rain = 0
KPD4 161422Z 24004KT 06/01 A3027 RMK A01 T00640008  RH  067%=      5-min Rain = 0
KPD4 161423Z 24004KT 07/01 A3027 RMK A01 T00680009  RH  066%=      5-min Rain = 0
KPD4 161424Z 25004KT 07/01 A3027 RMK A01 T00690007  RH  065%=      5-min Rain = 0
KPD4 161425Z 24004KT 07/01 A3027 RMK A01 T00710008  RH  064%=      5-min Rain = 0
KPD4 161426Z 23003KT 07/01 A3027 RMK A01 T00730009  RH  064%=      5-min Rain = 0
KPD4 161427Z 24003KT 07/01 A3027 RMK A01 T00740007  RH  063%=      5-min Rain = 0
KPD4 161428Z 18002KT 08/01 A3027 RMK A01 T00750011  RH  064%=      5-min Rain = 0
KPD4 161429Z 19002KT 08/01 A3027 RMK A01 T00760010  RH  063%=      5-min Rain = 0
KPD4 161430Z 18002KT 08/01 A3027 RMK A01 T00760009  RH  062%=      5-min Rain = 0
KPD4 161431Z 19002KT 08/01 A3027 RMK A01 T00760010  RH  063%=      5-min Rain = 0
KPD4 161432Z 20003KT 08/01 A3027 RMK A01 T00770008  RH  062%=      5-min Rain = 0
KPD4 161433Z 19002KT 08/01 A3027 RMK A01 T00770009  RH  062%=      5-min Rain = 0
KPD4 161434Z 19002KT 08/01 A3027 RMK A01 T00770011  RH  063%=      5-min Rain = 0
KPD4 161435Z 19002KT 08/01 A3027 RMK A01 T00770010  RH  063%=      5-min Rain = 0
KPD4 161436Z 20002KT 08/01 A3028 RMK A01 T00770011  RH  063%=      5-min Rain = 0
KPD4 161437Z 20003KT 08/01 A3028 RMK A01 T00760012  RH  064%=      5-min Rain = 0
KPD4 161438Z 20002KT 08/01 A3028 RMK A01 T00750009  RH  063%=      5-min Rain = 0
KPD4 161439Z 19002KT 07/01 A3028 RMK A01 T00740013  RH  065%=      5-min Rain = 0
KPD4 161440Z 19002KT 08/02 A3028 RMK A01 T00760015  RH  065%=      5-min Rain = 0
KPD4 161441Z 17002KT 08/01 A3027 RMK A01 T00770012  RH  064%=      5-min Rain = 0
KPD4 161442Z 17002KT 08/01 A3027 RMK A01 T00790014  RH  064%=      5-min Rain = 0
KPD4 161443Z 18002KT 08/01 A3027 RMK A01 T00800013  RH  063%=      5-min Rain = 0
KPD4 161444Z 16002KT 08/01 A3027 RMK A01 T00800012  RH  062%=      5-min Rain = 0
KPD4 161445Z 18002KT 08/01 A3028 RMK A01 T00830014  RH  062%=      5-min Rain = 0
KPD4 161446Z 18002KT 09/01 A3028 RMK A01 T00850014  RH  061%=      5-min Rain = 0
KPD4 161447Z 18002KT 09/01 A3027 RMK A01 T00880014  RH  060%=      5-min Rain = 0
KPD4 161448Z 18002KT 09/02 A3027 RMK A01 T00890015  RH  060%=      5-min Rain = 0
KPD4 161449Z 20002KT 09/01 A3027 RMK A01 T00910013  RH  058%=      5-min Rain = 0
KPD4 161450Z 18001KT 09/01 A3027 RMK A01 T00900011  RH  058%=      5-min Rain = 0
KPD4 161451Z 16001KT 09/01 A3027 RMK A01 T00900013  RH  058%=      5-min Rain = 0
KPD4 161452Z 17001KT 09/01 A3027 RMK A01 T00920012  RH  058%=      5-min Rain = 0
KPD4 161453Z 21002KT 09/01 A3027 RMK A01 T00920011  RH  057%=      5-min Rain = 0
KPD4 161454Z 20001KT 09/01 A3027 RMK A01 T00920011  RH  057%=      5-min Rain = 0
KPD4 161455Z 20001KT 09/02 A3027 RMK A01 T00930015  RH  058%=      5-min Rain = 0
KPD4 161456Z 19001KT 10/01 A3027 RMK A01 T00960011  RH  056%=      5-min Rain = 0
KPD4 161457Z 20001KT 10/01 A3027 RMK A01 T00970011  RH  055%=      5-min Rain = 0
KPD4 161458Z 19001KT 10/01 A3027 RMK A01 T00990012  RH  054%=      5-min Rain = 0
KPD4 161459Z 18002KT 10/01 A3027 RMK A01 T01000009  RH  053%=      5-min Rain = 0
KPD4 161500Z 17001KT 10/01 A3027 RMK A01 T01010010  RH  053%=      5-min Rain = 0
KPD4 161501Z 18002KT 10/01 A3027 RMK A01 T01020010  RH  053%=      5-min Rain = 0
KPD4 161502Z 18003KT 10/01 A3027 RMK A01 T01030011  RH  053%=      5-min Rain = 0
KPD4 161503Z 18002KT 10/01 A3027 RMK A01 T01040008  RH  052%=      5-min Rain = 0
KPD4 161504Z 19001KT 10/01 A3027 RMK A01 T01040008  RH  052%=      5-min Rain = 0
KPD4 161505Z 19002KT 11/01 A3027 RMK A01 T01050011  RH  052%=      5-min Rain = 0
KPD4 161506Z 19002KT 11/01 A3027 RMK A01 T01060010  RH  051%=      5-min Rain = 0
KPD4 161507Z 20002KT 11/01 A3027 RMK A01 T01060011  RH  052%=      5-min Rain = 0
KPD4 161508Z 21001KT 11/01 A3027 RMK A01 T01070010  RH  051%=      5-min Rain = 0
KPD4 161509Z 21000KT 11/01 A3027 RMK A01 T01070010  RH  051%=      5-min Rain = 0
KPD4 161510Z 18001KT 11/01 A3027 RMK A01 T01050010  RH  052%=      5-min Rain = 0
KPD4 161511Z 18001KT 11/01 A3027 RMK A01 T01080013  RH  052%=      5-min Rain = 0
KPD4 161512Z 19002KT 11/01 A3027 RMK A01 T01100011  RH  051%=      5-min Rain = 0
KPD4 161513Z 21002KT 11/01 A3027 RMK A01 T01100013  RH  051%=      5-min Rain = 0
KPD4 161514Z 21001KT 11/01 A3027 RMK A01 T01110011  RH  050%=      5-min Rain = 0
KPD4 161515Z 16002KT 11/01 A3027 RMK A01 T01130012  RH  050%=      5-min Rain = 0
KPD4 161516Z 15001KT 11/01 A3027 RMK A01 T01140011  RH  049%=      5-min Rain = 0
KPD4 161517Z 20001KT 11/01 A3027 RMK A01 T01140011  RH  049%=      5-min Rain = 0
KPD4 161518Z 22001KT 11/01 A3027 RMK A01 T01140012  RH  049%=      5-min Rain = 0
KPD4 161519Z 18002KT 12/02 A3027 RMK A01 T01150015  RH  050%=      5-min Rain = 0
KPD4 161520Z 19003KT 12/02 A3027 RMK A01 T01170015  RH  050%=      5-min Rain = 0
KPD4 161521Z 20003KT 12/01 A3027 RMK A01 T01180014  RH  049%=      5-min Rain = 0
KPD4 161522Z 18003KT 12/01 A3027 RMK A01 T01160014  RH  049%=      5-min Rain = 0
KPD4 161523Z 19005KT 12/01 A3027 RMK A01 T01160013  RH  049%=      5-min Rain = 0
KPD4 161524Z 18004KT 12/01 A3027 RMK A01 T01170011  RH  048%=      5-min Rain = 0
KPD4 161525Z 19005KT 12/01 A3027 RMK A01 T01190013  RH  048%=      5-min Rain = 0
KPD4 161526Z 18005KT 12/01 A3027 RMK A01 T01220010  RH  046%=      5-min Rain = 0
KPD4 161527Z 20006KT 13/01 A3027 RMK A01 T01250010  RH  046%=      5-min Rain = 0
KPD4 161528Z 20006KT 13/01 A3027 RMK A01 T01260007  RH  044%=      5-min Rain = 0
KPD4 161529Z 19006KT 12/01 A3027 RMK A01 T01240005  RH  044%=      5-min Rain = 0
KPD4 161530Z 21005KT 13/01 A3027 RMK A01 T01250006  RH  044%=      5-min Rain = 0
KPD4 161531Z 20004KT 13/01 A3027 RMK A01 T01250010  RH  045%=      5-min Rain = 0
KPD4 161532Z 19006KT 13/01 A3027 RMK A01 T01290011  RH  045%=      5-min Rain = 0
KPD4 161533Z 20004KT 13/01 A3027 RMK A01 T01300009  RH  044%=      5-min Rain = 0
KPD4 161534Z 21005KT 13/01 A3027 RMK A01 T01310012  RH  044%=      5-min Rain = 0
KPD4 161535Z 22005KT 13/01 A3027 RMK A01 T01320009  RH  043%=      5-min Rain = 0
KPD4 161536Z 20006KT 13/01 A3026 RMK A01 T01320010  RH  043%=      5-min Rain = 0
KPD4 161537Z 19006KT 13/01 A3026 RMK A01 T01320011  RH  044%=      5-min Rain = 0
KPD4 161538Z 19006KT 13/01 A3026 RMK A01 T01330009  RH  043%=      5-min Rain = 0
KPD4 161539Z 21007KT 13/01 A3026 RMK A01 T01340008  RH  042%=      5-min Rain = 0
KPD4 161540Z 23005KT 14/01 A3026 RMK A01 T01360006  RH  041%=      5-min Rain = 0
KPD4 161541Z 22007KT 14/01 A3026 RMK A01 T01380006  RH  041%=      5-min Rain = 0
KPD4 161542Z 22009KT 14/01 A3026 RMK A01 T01400006  RH  040%=      5-min Rain = 0
KPD4 161543Z 22008KT 14/01 A3026 RMK A01 T01420006  RH  039%=      5-min Rain = 0
KPD4 161544Z 20009KT 14/01 A3026 RMK A01 T01420007  RH  040%=      5-min Rain = 0
KPD4 161545Z 20008KT 14/01 A3026 RMK A01 T01390005  RH  040%=      5-min Rain = 0
KPD4 161546Z 21011KT 14/01 A3026 RMK A01 T01390006  RH  040%=      5-min Rain = 0
KPD4 161547Z 22011KT 14/01 A3026 RMK A01 T01420005  RH  039%=      5-min Rain = 0
KPD4 161548Z 23010KT 14/00 A3026 RMK A01 T01420002  RH  038%=      5-min Rain = 0
KPD4 161549Z 23008KT 14/00 A3026 RMK A01 T01420001  RH  038%=      5-min Rain = 0
KPD4 161550Z 23009KT 14/00 A3026 RMK A01 T01410004  RH  039%=      5-min Rain = 0
KPD4 161551Z 23007KT 14/01 A3026 RMK A01 T01410006  RH  040%=      5-min Rain = 0
KPD4 161552Z 22008KT 14/01 A3026 RMK A01 T01430009  RH  040%=      5-min Rain = 0
KPD4 161553Z 21009KT 15/01 A3026 RMK A01 T01480009  RH  039%=      5-min Rain = 0
KPD4 161554Z 21009KT 15/01 A3026 RMK A01 T01500008  RH  038%=      5-min Rain = 0
KPD4 161555Z 20010KT 15/00 A3026 RMK A01 T01490004  RH  037%=      5-min Rain = 0
KPD4 161556Z 20012KT 15/01 A3026 RMK A01 T01480005  RH  038%=      5-min Rain = 0
KPD4 161557Z 21011KT 15/00 A3026 RMK A01 T01480002  RH  037%=      5-min Rain = 0
KPD4 161558Z 20013KT 15/00 A3025 RMK A01 T01470003  RH  037%=      5-min Rain = 0
KPD4 161559Z 21011KT 15/00 A3025 RMK A01 T01490003  RH  037%=      5-min Rain = 0
KPD4 161600Z 18009KT 15/01 A3025 RMK A01 T01500006  RH  038%=      5-min Rain = 0
KPD4 161601Z 21010KT 15/01 A3025 RMK A01 T01500007  RH  038%=      5-min Rain = 0
KPD4 161602Z 21012KT 15/01 A3025 RMK A01 T01510005  RH  037%=      5-min Rain = 0
KPD4 161603Z 22011KT 15/00 A3025 RMK A01 T01520002  RH  036%=      5-min Rain = 0
KPD4 161604Z 22010KT 15/00 A3025 RMK A01 T01530003  RH  036%=      5-min Rain = 0
KPD4 161605Z 23011KT 15/00 A3025 RMK A01 T01530002  RH  036%=      5-min Rain = 0
KPD4 161606Z 21014KT 15/00 A3025 RMK A01 T01530001  RH  036%=      5-min Rain = 0
KPD4 161607Z 21013KT 15/00 A3025 RMK A01 T015300-0  RH  035%=      5-min Rain = 0
KPD4 161608Z 22014KT 15/M00 A3025 RMK A01 T01531001  RH  035%=      5-min Rain = 0
KPD4 161609Z 23013KT 15/00 A3025 RMK A01 T015300-0  RH  035%=      5-min Rain = 0
KPD4 161610Z 23011KT 16/00 A3025 RMK A01 T01550004  RH  036%=      5-min Rain = 0
KPD4 161611Z 22013KT 16/00 A3025 RMK A01 T01580001  RH  034%=      5-min Rain = 0
KPD4 161612Z 22013KT 16/M00 A3025 RMK A01 T01561001  RH  034%=      5-min Rain = 0
KPD4 161613Z 21014KT 16/00 A3025 RMK A01 T01560001  RH  035%=      5-min Rain = 0
KPD4 161614Z 21013KT 16/M00 A3025 RMK A01 T01561001  RH  034%=      5-min Rain = 0
KPD4 161615Z 22010KT 16/M00 A3025 RMK A01 T01551001  RH  035%=      5-min Rain = 0
KPD4 161616Z 23012KT 16/00 A3025 RMK A01 T01570002  RH  035%=      5-min Rain = 0
KPD4 161617Z 23010KT 16/00 A3025 RMK A01 T01580002  RH  035%=      5-min Rain = 0
KPD4 161618Z 22014KT 16/00 A3025 RMK A01 T01600004  RH  035%=      5-min Rain = 0
KPD4 161619Z 22016KT 16/00 A3024 RMK A01 T01610002  RH  034%=      5-min Rain = 0
KPD4 161620Z 23014KT 16/00 A3024 RMK A01 T01610001  RH  034%=      5-min Rain = 0
KPD4 161621Z 23016KT 16/00 A3024 RMK A01 T01610001  RH  034%=      5-min Rain = 0
KPD4 161622Z 23014KT 16/00 A3024 RMK A01 T01600002  RH  034%=      5-min Rain = 0
KPD4 161623Z 24013KT 16/00 A3024 RMK A01 T01600002  RH  034%=      5-min Rain = 0
KPD4 161624Z 23012KT 16/01 A3024 RMK A01 T01630006  RH  034%=      5-min Rain = 0
KPD4 161625Z 24012KT 17/01 A3024 RMK A01 T01650005  RH  034%=      5-min Rain = 0
KPD4 161626Z 24012KT 17/00 A3024 RMK A01 T01660004  RH  033%=      5-min Rain = 0
KPD4 161627Z 23010KT 17/00 A3024 RMK A01 T01650004  RH  033%=      5-min Rain = 0
KPD4 161628Z 24012KT 17/01 A3024 RMK A01 T01680007  RH  034%=      5-min Rain = 0
KPD4 161629Z 23011KT 17/00 A3024 RMK A01 T01690001  RH  032%=      5-min Rain = 0
KPD4 161630Z 24013KT 17/00 A3024 RMK A01 T01670003  RH  033%=      5-min Rain = 0
KPD4 161631Z 24011KT 17/00 A3024 RMK A01 T01660002  RH  033%=      5-min Rain = 0
KPD4 161632Z 21014KT 17/00 A3024 RMK A01 T01660003  RH  033%=      5-min Rain = 0
KPD4 161633Z 20013KT 17/00 A3024 RMK A01 T01670001  RH  032%=      5-min Rain = 0
KPD4 161634Z 21015KT 17/00 A3024 RMK A01 T01670001  RH  032%=      5-min Rain = 0
KPD4 161635Z 21013KT 17/00 A3024 RMK A01 T01670001  RH  032%=      5-min Rain = 0
KPD4 161636Z 22012KT 17/00 A3024 RMK A01 T01670002  RH  033%=      5-min Rain = 0
KPD4 161637Z 23014KT 17/01 A3024 RMK A01 T01710005  RH  033%=      5-min Rain = 0
KPD4 161638Z 23011KT 17/00 A3024 RMK A01 T017000-0  RH  031%=      5-min Rain = 0
KPD4 161639Z 23008KT 17/00 A3024 RMK A01 T01680002  RH  032%=      5-min Rain = 0
KPD4 161640Z 22013KT 17/01 A3023 RMK A01 T01700005  RH  033%=      5-min Rain = 0
KPD4 161641Z 21014KT 17/00 A3023 RMK A01 T01700003  RH  032%=      5-min Rain = 0
KPD4 161642Z 21013KT 17/00 A3023 RMK A01 T01690002  RH  032%=      5-min Rain = 0
KPD4 161643Z 20013KT 17/01 A3023 RMK A01 T01690006  RH  033%=      5-min Rain = 0
KPD4 161644Z 21013KT 17/00 A3023 RMK A01 T01700004  RH  032%=      5-min Rain = 0
KPD4 161645Z 21011KT 17/01 A3023 RMK A01 T01710007  RH  033%=      5-min Rain = 0
KPD4 161646Z 20013KT 18/01 A3023 RMK A01 T01760009  RH  033%=      5-min Rain = 0
KPD4 161647Z 20016KT 17/00 A3023 RMK A01 T01740004  RH  032%=      5-min Rain = 0
KPD4 161648Z 21015KT 17/00 A3023 RMK A01 T01700000  RH  032%=      5-min Rain = 0
KPD4 161649Z 21015KT 17/00 A3023 RMK A01 T01680002  RH  032%=      5-min Rain = 0
KPD4 161650Z 22012KT 17/00 A3023 RMK A01 T01680002  RH  033%=      5-min Rain = 0
KPD4 161651Z 22010KT 17/00 A3023 RMK A01 T01680003  RH  033%=      5-min Rain = 0
KPD4 161652Z 23010KT 17/00 A3023 RMK A01 T01670003  RH  033%=      5-min Rain = 0
KPD4 161653Z 22011KT 17/01 A3023 RMK A01 T01680007  RH  034%=      5-min Rain = 0
KPD4 161654Z 21013KT 17/01 A3023 RMK A01 T01740008  RH  033%=      5-min Rain = 0
KPD4 161655Z 22011KT 17/01 A3023 RMK A01 T01740005  RH  032%=      5-min Rain = 0
KPD4 161656Z 21015KT 18/01 A3023 RMK A01 T01760005  RH  032%=      5-min Rain = 0
KPD4 161657Z 21014KT 18/00 A3023 RMK A01 T01770001  RH  031%=      5-min Rain = 0
KPD4 161658Z 21010G15KT 18/00 A3023 RMK A01 T017500-0  RH  031%=      5-min Rain = 0
KPD4 161659Z 21011KT 18/00 A3023 RMK A01 T01750002  RH  031%=      5-min Rain = 0
KPD4 161700Z 21011KT 18/00 A3022 RMK A01 T01750002  RH  031%=      5-min Rain = 0
KPD4 161701Z 19014KT 18/00 A3022 RMK A01 T01770000  RH  030%=      5-min Rain = 0
KPD4 161702Z 21019G25KT 18/M00 A3022 RMK A01 T01791002  RH  029%=      5-min Rain = 0
KPD4 161703Z 22013KT 18/M00 A3022 RMK A01 T01811001  RH  029%=      5-min Rain = 0
KPD4 161704Z 21011KT 18/00 A3022 RMK A01 T01820001  RH  029%=      5-min Rain = 0
KPD4 161705Z 21015KT 18/00 A3022 RMK A01 T01840003  RH  029%=      5-min Rain = 0
KPD4 161706Z 20013KT 19/00 A3022 RMK A01 T01860004  RH  029%=      5-min Rain = 0
KPD4 161707Z 19012KT 19/01 A3022 RMK A01 T01880005  RH  029%=      5-min Rain = 0
KPD4 161708Z 21012KT 19/00 A3022 RMK A01 T01850003  RH  029%=      5-min Rain = 0
KPD4 161709Z 23014KT 19/00 A3022 RMK A01 T01850004  RH  030%=      5-min Rain = 0
KPD4 161710Z 23012KT 18/00 A3022 RMK A01 T01840001  RH  029%=      5-min Rain = 0
KPD4 161711Z 22009KT 18/01 A3022 RMK A01 T01840005  RH  030%=      5-min Rain = 0
KPD4 161712Z 21011KT 19/01 A3021 RMK A01 T01880007  RH  030%=      5-min Rain = 0
KPD4 161713Z 20014KT 19/01 A3021 RMK A01 T01920007  RH  029%=      5-min Rain = 0
KPD4 161714Z 21014KT 19/00 A3021 RMK A01 T01920001  RH  028%=      5-min Rain = 0
KPD4 161715Z 21010KT 19/00 A3021 RMK A01 T01850002  RH  029%=      5-min Rain = 0
KPD4 161716Z 22013KT 19/01 A3021 RMK A01 T01860005  RH  030%=      5-min Rain = 0
KPD4 161717Z 22012KT 19/M00 A3021 RMK A01 T01881003  RH  027%=      5-min Rain = 0
KPD4 161718Z 20011KT 19/M00 A3021 RMK A01 T01871004  RH  028%=      5-min Rain = 0
KPD4 161719Z 21015KT 19/M00 A3021 RMK A01 T01871003  RH  028%=      5-min Rain = 0
KPD4 161720Z 21015KT 19/M00 A3021 RMK A01 T01881003  RH  028%=      5-min Rain = 0
KPD4 161721Z 21012KT 19/M00 A3021 RMK A01 T01891004  RH  027%=      5-min Rain = 0
KPD4 161722Z 21012KT 19/M00 A3021 RMK A01 T01901003  RH  027%=      5-min Rain = 0
KPD4 161723Z 21012KT 19/M00 A3021 RMK A01 T01911003  RH  027%=      5-min Rain = 0
KPD4 161724Z 22014KT 19/M00 A3021 RMK A01 T01931001  RH  027%=      5-min Rain = 0
KPD4 161725Z 23014KT 19/M00 A3021 RMK A01 T01941004  RH  026%=      5-min Rain = 0
KPD4 161726Z 21014KT 19/M00 A3021 RMK A01 T01911004  RH  027%=      5-min Rain = 0
KPD4 161727Z 21010KT 19/M01 A3021 RMK A01 T01901006  RH  027%=      5-min Rain = 0
KPD4 161728Z 23012KT 19/M00 A3021 RMK A01 T01921001  RH  027%=      5-min Rain = 0
KPD4 161729Z 21013KT 20/M00 A3021 RMK A01 T01951003  RH  026%=      5-min Rain = 0
KPD4 161730Z 21012KT 20/M00 A3021 RMK A01 T01961001  RH  027%=      5-min Rain = 0
KPD4 161731Z 20012KT 20/M00 A3021 RMK A01 T01971002  RH  026%=      5-min Rain = 0
KPD4 161732Z 20011KT 19/M00 A3021 RMK A01 T01941002  RH  027%=      5-min Rain = 0
KPD4 161733Z 20013KT 19/M00 A3021 RMK A01 T01921001  RH  027%=      5-min Rain = 0
KPD4 161734Z 20014KT 20/00 A3021 RMK A01 T01950001  RH  027%=      5-min Rain = 0
KPD4 161735Z 19017KT 20/00 A3021 RMK A01 T019900-0  RH  026%=      5-min Rain = 0
KPD4 161736Z 21014KT 20/M00 A3021 RMK A01 T01991004  RH  026%=      5-min Rain = 0
KPD4 161737Z 21013KT 20/M00 A3021 RMK A01 T01971004  RH  026%=      5-min Rain = 0
KPD4 161738Z 21012G18KT 20/M00 A3021 RMK A01 T01961004  RH  026%=      5-min Rain = 0
KPD4 161739Z 22014KT 20/M00 A3021 RMK A01 T01981004  RH  026%=      5-min Rain = 0
KPD4 161740Z 23012KT 20/M00 A3021 RMK A01 T01981003  RH  026%=      5-min Rain = 0
KPD4 161741Z 22010KT 20/00 A3021 RMK A01 T02000002  RH  027%=      5-min Rain = 0
KPD4 161742Z 23012KT 20/00 A302 RMK A01 T02040003  RH  026%=      5-min Rain = 0
KPD4 161743Z 23013KT 20/M00 A302 RMK A01 T02031001  RH  025%=      5-min Rain = 0
KPD4 161744Z 22015G20KT 20/M00 A302 RMK A01 T02011003  RH  026%=      5-min Rain = 0
KPD4 161745Z 21013G19KT 20/M00 A302 RMK A01 T02001003  RH  026%=      5-min Rain = 0
KPD4 161746Z 23014KT 20/M00 A302 RMK A01 T02031002  RH  025%=      5-min Rain = 0
KPD4 161747Z 23015KT 20/M00 A302 RMK A01 T02031002  RH  025%=      5-min Rain = 0
KPD4 161748Z 23014KT 20/M01 A302 RMK A01 T02031007  RH  024%=      5-min Rain = 0
KPD4 161749Z 21013KT 20/M01 A302 RMK A01 T02011005  RH  025%=      5-min Rain = 0
KPD4 161750Z 21015KT 20/M01 A302 RMK A01 T02011005  RH  025%=      5-min Rain = 0
KPD4 161751Z 20015KT 20/M01 A302 RMK A01 T02011005  RH  025%=      5-min Rain = 0
KPD4 161752Z 20014KT 20/M01 A302 RMK A01 T02001005  RH  025%=      5-min Rain = 0
KPD4 161753Z 21014KT 20/M01 A302 RMK A01 T02001006  RH  025%=      5-min Rain = 0
KPD4 161754Z 21011KT 20/M00 A302 RMK A01 T02021002  RH  025%=      5-min Rain = 0
KPD4 161755Z 20017KT 21/M00 A302 RMK A01 T02061004  RH  024%=      5-min Rain = 0
KPD4 161756Z 22015KT 21/M01 A302 RMK A01 T02051011  RH  023%=      5-min Rain = 0
KPD4 161757Z 22013KT 20/M01 A302 RMK A01 T02021010  RH  024%=      5-min Rain = 0
KPD4 161758Z 21013KT 20/M01 A302 RMK A01 T02021008  RH  024%=      5-min Rain = 0
KPD4 161759Z 21011G16KT 20/M01 A3019 RMK A01 T02031006  RH  025%=      5-min Rain = 0
KPD4 161800Z 22016KT 21/M01 A3019 RMK A01 T02061005  RH  024%=      5-min Rain = 0
KPD4 161801Z 23014KT 21/M01 A3019 RMK A01 T02061007  RH  024%=      5-min Rain = 0
KPD4 161802Z 22014KT 21/M01 A3019 RMK A01 T02051008  RH  024%=      5-min Rain = 0
KPD4 161803Z 23010KT 20/M01 A3019 RMK A01 T02041007  RH  024%=      5-min Rain = 0
KPD4 161804Z 22010KT 20/M01 A3019 RMK A01 T02031005  RH  025%=      5-min Rain = 0
KPD4 161805Z 21013G18KT 21/M00 A3019 RMK A01 T02071003  RH  025%=      5-min Rain = 0
KPD4 161806Z 20017KT 21/M01 A3019 RMK A01 T02101006  RH  024%=      5-min Rain = 0
KPD4 161807Z 20013KT 21/M01 A3019 RMK A01 T02071009  RH  023%=      5-min Rain = 0
KPD4 161808Z 20014G21KT 21/M01 A3019 RMK A01 T02061008  RH  024%=      5-min Rain = 0
KPD4 161809Z 22016G25KT 21/M01 A3019 RMK A01 T02091007  RH  024%=      5-min Rain = 0
KPD4 161810Z 22013KT 21/M00 A3019 RMK A01 T02131004  RH  023%=      5-min Rain = 0
KPD4 161811Z 22011G17KT 22/M00 A3019 RMK A01 T02161002  RH  023%=      5-min Rain = 0
KPD4 161812Z 22012KT 22/M01 A3019 RMK A01 T02191005  RH  023%=      5-min Rain = 0
KPD4 161813Z 23014KT 22/M01 A3019 RMK A01 T02171008  RH  022%=      5-min Rain = 0
KPD4 161814Z 21017KT 22/M01 A3019 RMK A01 T02161006  RH  023%=      5-min Rain = 0
KPD4 161815Z 20014KT 21/M01 A3019 RMK A01 T02141008  RH  023%=      5-min Rain = 0
KPD4 161816Z 20011KT 21/M01 A3019 RMK A01 T02131008  RH  023%=      5-min Rain = 0
KPD4 161817Z 21011KT 21/M01 A3019 RMK A01 T02121009  RH  023%=      5-min Rain = 0
KPD4 161818Z 21015G22KT 21/M01 A3018 RMK A01 T02131006  RH  023%=      5-min Rain = 0
KPD4 161819Z 21019KT 22/M01 A3018 RMK A01 T02161012  RH  022%=      5-min Rain = 0
KPD4 161820Z 22014KT 21/M01 A3018 RMK A01 T02141011  RH  022%=      5-min Rain = 0
KPD4 161821Z 22016KT 21/M01 A3018 RMK A01 T02131010  RH  022%=      5-min Rain = 0
KPD4 161822Z 21015KT 21/M01 A3018 RMK A01 T02131008  RH  023%=      5-min Rain = 0
KPD4 161823Z 21019KT 22/M01 A3018 RMK A01 T02151010  RH  022%=      5-min Rain = 0
KPD4 161824Z 22017KT 21/M01 A3018 RMK A01 T02141010  RH  022%=      5-min Rain = 0
KPD4 161825Z 23018G23KT 21/M01 A3018 RMK A01 T02141012  RH  022%=      5-min Rain = 0
KPD4 161826Z 21017KT 22/M01 A3018 RMK A01 T02151009  RH  022%=      5-min Rain = 0
KPD4 161827Z 22020KT 22/M01 A3018 RMK A01 T02171011  RH  022%=      5-min Rain = 0
KPD4 161828Z 22018KT 22/M01 A3018 RMK A01 T02151011  RH  022%=      5-min Rain = 0
KPD4 161829Z 22017KT 21/M01 A3018 RMK A01 T02141013  RH  022%=      5-min Rain = 0
KPD4 161830Z 22018KT 22/M01 A3018 RMK A01 T02151011  RH  022%=      5-min Rain = 0
KPD4 161831Z 22018KT 22/M01 A3018 RMK A01 T02151012  RH  022%=      5-min Rain = 0
KPD4 161832Z 23015KT 21/M01 A3018 RMK A01 T02141010  RH  022%=      5-min Rain = 0
KPD4 161833Z 23013KT 22/M01 A3017 RMK A01 T02151010  RH  022%=      5-min Rain = 0
KPD4 161834Z 22017G22KT 22/M01 A3017 RMK A01 T02161007  RH  022%=      5-min Rain = 0
KPD4 161835Z 22017G22KT 22/M01 A3017 RMK A01 T02171010  RH  022%=      5-min Rain = 0
KPD4 161836Z 22018KT 22/M01 A3017 RMK A01 T02181011  RH  022%=      5-min Rain = 0
KPD4 161837Z 22012KT 22/M01 A3017 RMK A01 T02171012  RH  022%=      5-min Rain = 0
KPD4 161838Z 23016KT 22/M01 A3017 RMK A01 T02181007  RH  022%=      5-min Rain = 0
KPD4 161839Z 22016KT 22/M01 A3017 RMK A01 T02181013  RH  021%=      5-min Rain = 0
KPD4 161840Z 20016KT 22/M01 A3017 RMK A01 T02161011  RH  022%=      5-min Rain = 0
KPD4 161841Z 20018KT 22/M01 A3017 RMK A01 T02201011  RH  021%=      5-min Rain = 0
KPD4 161842Z 21022KT 22/M01 A3017 RMK A01 T02211013  RH  021%=      5-min Rain = 0
KPD4 161843Z 20017KT 22/M01 A3017 RMK A01 T02181014  RH  021%=      5-min Rain = 0
KPD4 161844Z 21014KT 22/M01 A3017 RMK A01 T02171014  RH  021%=      5-min Rain = 0
KPD4 161845Z 20014KT 22/M01 A3017 RMK A01 T02161013  RH  021%=      5-min Rain = 0
KPD4 161846Z 21016KT 22/M01 A3017 RMK A01 T02191011  RH  022%=      5-min Rain = 0
KPD4 161847Z 21017KT 22/M01 A3017 RMK A01 T02201013  RH  021%=      5-min Rain = 0
KPD4 161848Z 21018KT 22/M01 A3017 RMK A01 T02201011  RH  021%=      5-min Rain = 0
KPD4 161849Z 22012KT 22/M01 A3017 RMK A01 T02191010  RH  022%=      5-min Rain = 0
KPD4 161850Z 21016KT 22/M01 A3016 RMK A01 T02211009  RH  022%=      5-min Rain = 0
KPD4 161851Z 20021KT 22/M01 A3016 RMK A01 T02221012  RH  021%=      5-min Rain = 0
KPD4 161852Z 21020KT 22/M01 A3016 RMK A01 T02211013  RH  021%=      5-min Rain = 0
KPD4 161853Z 21019G24KT 22/M01 A3016 RMK A01 T02221013  RH  021%=      5-min Rain = 0
KPD4 161854Z 21016KT 22/M01 A3017 RMK A01 T02231011  RH  021%=      5-min Rain = 0
KPD4 161855Z 22017KT 23/M01 A3017 RMK A01 T02251011  RH  021%=      5-min Rain = 0
KPD4 161856Z 21015KT 22/M02 A3017 RMK A01 T02231016  RH  020%=      5-min Rain = 0
KPD4 161857Z 20014KT 22/M01 A3017 RMK A01 T02211013  RH  021%=      5-min Rain = 0
KPD4 161858Z 20012KT 22/M01 A3017 RMK A01 T02211013  RH  021%=      5-min Rain = 0
KPD4 161859Z 20017KT 22/M01 A3016 RMK A01 T02241007  RH  021%=      5-min Rain = 0
KPD4 161900Z 20017KT 23/M01 A3016 RMK A01 T02271010  RH  021%=      5-min Rain = 0
KPD4 161901Z 20017KT 22/M01 A3016 RMK A01 T02241012  RH  021%=      5-min Rain = 0
KPD4 161902Z 19013KT 22/M01 A3016 RMK A01 T02221009  RH  021%=      5-min Rain = 0
KPD4 161903Z 22016G21KT 23/M01 A3016 RMK A01 T02271007  RH  021%=      5-min Rain = 0
KPD4 161904Z 23016KT 23/M01 A3016 RMK A01 T02281012  RH  020%=      5-min Rain = 0
KPD4 161905Z 22021KT 23/M02 A3016 RMK A01 T02261016  RH  020%=      5-min Rain = 0
KPD4 161906Z 23015KT 22/M02 A3016 RMK A01 T02241017  RH  020%=      5-min Rain = 0
KPD4 161907Z 22016G21KT 22/M02 A3016 RMK A01 T02241015  RH  020%=      5-min Rain = 0
KPD4 161908Z 22021KT 23/M01 A3016 RMK A01 T02251013  RH  020%=      5-min Rain = 0
KPD4 161909Z 22019KT 22/M02 A3016 RMK A01 T02241016  RH  020%=      5-min Rain = 0
KPD4 161910Z 22019KT 22/M02 A3016 RMK A01 T02231018  RH  020%=      5-min Rain = 0
KPD4 161911Z 22020G26KT 22/M02 A3016 RMK A01 T02221018  RH  020%=      5-min Rain = 0
KPD4 161912Z 21018KT 22/M02 A3016 RMK A01 T02231017  RH  020%=      5-min Rain = 0
KPD4 161913Z 21018KT 23/M02 A3016 RMK A01 T02251017  RH  020%=      5-min Rain = 0
KPD4 161914Z 21015G20KT 23/M02 A3016 RMK A01 T02261018  RH  020%=      5-min Rain = 0
KPD4 161915Z 22014KT 23/M02 A3016 RMK A01 T02251016  RH  020%=      5-min Rain = 0
KPD4 161916Z 22016KT 23/M01 A3015 RMK A01 T02291013  RH  020%=      5-min Rain = 0
KPD4 161917Z 20017KT 23/M02 A3015 RMK A01 T02291016  RH  019%=      5-min Rain = 0
KPD4 161918Z 22014KT 23/M01 A3016 RMK A01 T02271014  RH  020%=      5-min Rain = 0
KPD4 161919Z 21014G20KT 23/M01 A3016 RMK A01 T02291013  RH  020%=      5-min Rain = 0
KPD4 161920Z 22016KT 23/M02 A3015 RMK A01 T02311016  RH  019%=      5-min Rain = 0
KPD4 161921Z 22014KT 23/M02 A3015 RMK A01 T02281018  RH  019%=      5-min Rain = 0
KPD4 161922Z 20016KT 23/M01 A3015 RMK A01 T02291014  RH  020%=      5-min Rain = 0
KPD4 161923Z 20020G27KT 23/M02 A3015 RMK A01 T02301017  RH  019%=      5-min Rain = 0
KPD4 161924Z 22018G24KT 23/M02 A3015 RMK A01 T02301020  RH  019%=      5-min Rain = 0
KPD4 161925Z 23017G22KT 23/M02 A3015 RMK A01 T02301022  RH  019%=      5-min Rain = 0
KPD4 161926Z 23017G22KT 23/M02 A3015 RMK A01 T02301023  RH  018%=      5-min Rain = 0
KPD4 161927Z 23015KT 23/M02 A3015 RMK A01 T02301022  RH  018%=      5-min Rain = 0
KPD4 161928Z 24017G22KT 23/M02 A3015 RMK A01 T02311022  RH  018%=      5-min Rain = 0
KPD4 161929Z 22016G21KT 23/M02 A3015 RMK A01 T02311023  RH  018%=      5-min Rain = 0
KPD4 161930Z 21018KT 23/M02 A3015 RMK A01 T02311023  RH  018%=      5-min Rain = 0
KPD4 161931Z 22017KT 23/M02 A3015 RMK A01 T02321021  RH  018%=      5-min Rain = 0
KPD4 161932Z 22015KT 23/M02 A3015 RMK A01 T02321018  RH  019%=      5-min Rain = 0
KPD4 161933Z 22014KT 23/M02 A3015 RMK A01 T02331019  RH  019%=      5-min Rain = 0
KPD4 161934Z 20014KT 23/M02 A3015 RMK A01 T02321022  RH  018%=      5-min Rain = 0
KPD4 161935Z 22016KT 23/M02 A3015 RMK A01 T02321023  RH  018%=      5-min Rain = 0
KPD4 161936Z 22016KT 23/M02 A3015 RMK A01 T02341021  RH  018%=      5-min Rain = 0
KPD4 161937Z 22014KT 24/M03 A3015 RMK A01 T02351025  RH  018%=      5-min Rain = 0
KPD4 161938Z 23012G17KT 23/M03 A3015 RMK A01 T02331025  RH  018%=      5-min Rain = 0
KPD4 161939Z 21015KT 24/M02 A3014 RMK A01 T02361020  RH  018%=      5-min Rain = 0
KPD4 161940Z 22018KT 24/M02 A3014 RMK A01 T02391021  RH  018%=      5-min Rain = 0
KPD4 161941Z 21016KT 24/M02 A3014 RMK A01 T02371023  RH  018%=      5-min Rain = 0
KPD4 161942Z 21020KT 24/M02 A3014 RMK A01 T02371023  RH  018%=      5-min Rain = 0
KPD4 161943Z 21020KT 24/M03 A3014 RMK A01 T02361026  RH  017%=      5-min Rain = 0
KPD4 161944Z 23016KT 23/M03 A3014 RMK A01 T02341027  RH  017%=      5-min Rain = 0
KPD4 161945Z 24014KT 23/M03 A3014 RMK A01 T02331027  RH  018%=      5-min Rain = 0
KPD4 161946Z 23015KT 23/M02 A3014 RMK A01 T02331024  RH  018%=      5-min Rain = 0
KPD4 161947Z 23018G24KT 24/M02 A3014 RMK A01 T02351024  RH  018%=      5-min Rain = 0
KPD4 161948Z 23020KT 24/M03 A3014 RMK A01 T02361028  RH  017%=      5-min Rain = 0
KPD4 161949Z 22016G21KT 24/M03 A3014 RMK A01 T02351027  RH  017%=      5-min Rain = 0
KPD4 161950Z 22019G25KT 24/M03 A3014 RMK A01 T02361029  RH  017%=      5-min Rain = 0
KPD4 161951Z 23015KT 24/M03 A3014 RMK A01 T02351030  RH  017%=      5-min Rain = 0
KPD4 161952Z 23015G22KT 23/M03 A3014 RMK A01 T02341029  RH  017%=      5-min Rain = 0
KPD4 161953Z 23019KT 24/M03 A3013 RMK A01 T02351029  RH  017%=      5-min Rain = 0
KPD4 161954Z 21019G24KT 24/M03 A3013 RMK A01 T02351029  RH  017%=      5-min Rain = 0
KPD4 161955Z 21019KT 23/M03 A3013 RMK A01 T02341029  RH  017%=      5-min Rain = 0
KPD4 161956Z 22015KT 23/M03 A3013 RMK A01 T02341030  RH  017%=      5-min Rain = 0
KPD4 161957Z 23017KT 24/M03 A3013 RMK A01 T02351026  RH  017%=      5-min Rain = 0
KPD4 161958Z 24014KT 24/M03 A3013 RMK A01 T02371026  RH  017%=      5-min Rain = 0
KPD4 161959Z 24014G19KT 24/M02 A3013 RMK A01 T02391024  RH  017%=      5-min Rain = 0
KPD4 162000Z 24017KT 24/M03 A3013 RMK A01 T02401029  RH  017%=      5-min Rain = 0
KPD4 162001Z 23016KT 24/M03 A3013 RMK A01 T02351029  RH  017%=      5-min Rain = 0
KPD4 162002Z 21015KT 24/M03 A3013 RMK A01 T02351027  RH  017%=      5-min Rain = 0
KPD4 162003Z 21014KT 24/M03 A3013 RMK A01 T02361029  RH  017%=      5-min Rain = 0
KPD4 162004Z 22011G16KT 24/M03 A3013 RMK A01 T02361025  RH  017%=      5-min Rain = 0
KPD4 162005Z 22018KT 24/M02 A3013 RMK A01 T02391024  RH  017%=      5-min Rain = 0
KPD4 162006Z 22020KT 24/M03 A3013 RMK A01 T02391027  RH  017%=      5-min Rain = 0
KPD4 162007Z 24016KT 24/M03 A3013 RMK A01 T02361028  RH  017%=      5-min Rain = 0
KPD4 162008Z 23015KT 23/M03 A3013 RMK A01 T02341027  RH  017%=      5-min Rain = 0
KPD4 162009Z 21018G25KT 23/M03 A3012 RMK A01 T02341027  RH  017%=      5-min Rain = 0
KPD4 162010Z 22016KT 23/M03 A3012 RMK A01 T02341026  RH  018%=      5-min Rain = 0
KPD4 162011Z 22016KT 24/M02 A3012 RMK A01 T02351024  RH  018%=      5-min Rain = 0
KPD4 162012Z 22020KT 24/M03 A3012 RMK A01 T02351026  RH  017%=      5-min Rain = 0
KPD4 162013Z 23019KT 23/M03 A3012 RMK A01 T02331027  RH  017%=      5-min Rain = 0
KPD4 162014Z 23015KT 23/M03 A3012 RMK A01 T02331026  RH  018%=      5-min Rain = 0
KPD4 162015Z 24015KT 23/M03 A3012 RMK A01 T02331026  RH  018%=      5-min Rain = 0
KPD4 162016Z 23016KT 23/M03 A3012 RMK A01 T02331025  RH  018%=      5-min Rain = 0
KPD4 162017Z 21017G22KT 24/M02 A3012 RMK A01 T02351024  RH  018%=      5-min Rain = 0
KPD4 162018Z 22019KT 24/M03 A3012 RMK A01 T02351027  RH  017%=      5-min Rain = 0
KPD4 162019Z 22017KT 23/M03 A3012 RMK A01 T02321027  RH  018%=      5-min Rain = 0
KPD4 162020Z 24016KT 23/M03 A3012 RMK A01 T02321025  RH  018%=      5-min Rain = 0
KPD4 162021Z 24014KT 23/M02 A3012 RMK A01 T02331024  RH  018%=      5-min Rain = 0
KPD4 162022Z 23016KT 24/M02 A3012 RMK A01 T02361022  RH  018%=      5-min Rain = 0
KPD4 162023Z 20018KT 24/M02 A3012 RMK A01 T02361023  RH  018%=      5-min Rain = 0
KPD4 162024Z 20014G19KT 23/M02 A3012 RMK A01 T02341023  RH  018%=      5-min Rain = 0
KPD4 162025Z 20015KT 23/M02 A3012 RMK A01 T02331022  RH  018%=      5-min Rain = 0
KPD4 162026Z 20015G23KT 23/M02 A3012 RMK A01 T02311024  RH  018%=      5-min Rain = 0
KPD4 162027Z 20021KT 23/M02 A3011 RMK A01 T02301024  RH  018%=      5-min Rain = 0
KPD4 162028Z 24018KT 23/M02 A3012 RMK A01 T02311021  RH  018%=      5-min Rain = 0
KPD4 162029Z 24016KT 23/M02 A3012 RMK A01 T02321021  RH  018%=      5-min Rain = 0
KPD4 162030Z 23017KT 23/M02 A3012 RMK A01 T02331020  RH  019%=      5-min Rain = 0
KPD4 162031Z 22012KT 23/M02 A3012 RMK A01 T02331020  RH  018%=      5-min Rain = 0
KPD4 162032Z 23013G18KT 23/M02 A3012 RMK A01 T02321019  RH  019%=      5-min Rain = 0
KPD4 162033Z 22018KT 24/M02 A3011 RMK A01 T02351015  RH  019%=      5-min Rain = 0
KPD4 162034Z 22016KT 24/M02 A3012 RMK A01 T02351017  RH  019%=      5-min Rain = 0
KPD4 162035Z 21018KT 23/M02 A3011 RMK A01 T02341018  RH  019%=      5-min Rain = 0
KPD4 162036Z 22019KT 23/M02 A3011 RMK A01 T02331017  RH  019%=      5-min Rain = 0
KPD4 162037Z 23018KT 23/M02 A3011 RMK A01 T02341016  RH  019%=      5-min Rain = 0
KPD4 162038Z 22015KT 23/M02 A3011 RMK A01 T02341017  RH  019%=      5-min Rain = 0
KPD4 162039Z 22013KT 24/M02 A3011 RMK A01 T02351016  RH  019%=      5-min Rain = 0
KPD4 162040Z 21013KT 24/M02 A3011 RMK A01 T02351017  RH  019%=      5-min Rain = 0
KPD4 162041Z 21012KT 23/M02 A3011 RMK A01 T02341015  RH  019%=      5-min Rain = 0
KPD4 162042Z 22020KT 24/M02 A3011 RMK A01 T02351015  RH  019%=      5-min Rain = 0
KPD4 162043Z 21016KT 23/M02 A3011 RMK A01 T02341015  RH  019%=      5-min Rain = 0
KPD4 162044Z 20015KT 23/M01 A3011 RMK A01 T02331014  RH  019%=      5-min Rain = 0
KPD4 162045Z 21015KT 23/M02 A3011 RMK A01 T02331015  RH  019%=      5-min Rain = 0
KPD4 162046Z 20014KT 23/M02 A3011 RMK A01 T02321015  RH  019%=      5-min Rain = 0
KPD4 162047Z 19015G21KT 23/M01 A3011 RMK A01 T02321013  RH  020%=      5-min Rain = 0
KPD4 162048Z 19015KT 23/M01 A3011 RMK A01 T02321013  RH  020%=      5-min Rain = 0
KPD4 162049Z 19014KT 23/M01 A3011 RMK A01 T02331011  RH  020%=      5-min Rain = 0
KPD4 162050Z 19020KT 24/M01 A3011 RMK A01 T02351010  RH  020%=      5-min Rain = 0
KPD4 162051Z 19020KT 23/M01 A3011 RMK A01 T02341011  RH  020%=      5-min Rain = 0
KPD4 162052Z 19018KT 23/M01 A3011 RMK A01 T02331012  RH  020%=      5-min Rain = 0
KPD4 162053Z 19014KT 23/M01 A3011 RMK A01 T02321011  RH  020%=      5-min Rain = 0
KPD4 162054Z 19015KT 23/M01 A3011 RMK A01 T02311011  RH  020%=      5-min Rain = 0
KPD4 162055Z 18012KT 23/M01 A3011 RMK A01 T02311010  RH  020%=      5-min Rain = 0
KPD4 162056Z 19015G22KT 23/M01 A3011 RMK A01 T02311008  RH  020%=      5-min Rain = 0
KPD4 162057Z 20018G23KT 23/M01 A3011 RMK A01 T02331007  RH  020%=      5-min Rain = 0
KPD4 162058Z 20019KT 23/M01 A3011 RMK A01 T02341007  RH  020%=      5-min Rain = 0
KPD4 162059Z 20018KT 24/M01 A3011 RMK A01 T02351009  RH  020%=      5-min Rain = 0
KPD4 162100Z 21015KT 23/M01 A3011 RMK A01 T02321010  RH  020%=      5-min Rain = 0
KPD4 162101Z 20013KT 23/M01 A3011 RMK A01 T02321007  RH  020%=      5-min Rain = 0
KPD4 162102Z 19014KT 23/M01 A3011 RMK A01 T02331007  RH  020%=      5-min Rain = 0
KPD4 162103Z 19013KT 23/M00 A3011 RMK A01 T02341004  RH  021%=      5-min Rain = 0
KPD4 162104Z 19015KT 24/M00 A3011 RMK A01 T02361004  RH  020%=      5-min Rain = 0
KPD4 162105Z 19012KT 24/M01 A3011 RMK A01 T02361006  RH  020%=      5-min Rain = 0
KPD4 162106Z 22014KT 24/M01 A3011 RMK A01 T02361007  RH  020%=      5-min Rain = 0
KPD4 162107Z 20012KT 24/M01 A301 RMK A01 T02371012  RH  019%=      5-min Rain = 0
KPD4 162108Z 18014KT 24/M01 A301 RMK A01 T02351006  RH  020%=      5-min Rain = 0
KPD4 162109Z 19015KT 24/M00 A301 RMK A01 T02351003  RH  021%=      5-min Rain = 0
KPD4 162110Z 20016KT 24/M00 A301 RMK A01 T02361003  RH  020%=      5-min Rain = 0
KPD4 162111Z 21018KT 24/M01 A301 RMK A01 T02371006  RH  020%=      5-min Rain = 0
KPD4 162112Z 21014G20KT 23/M01 A301 RMK A01 T02341008  RH  020%=      5-min Rain = 0
KPD4 162113Z 22014KT 23/M01 A301 RMK A01 T02341006  RH  020%=      5-min Rain = 0
KPD4 162114Z 22015KT 24/M01 A301 RMK A01 T02361007  RH  020%=      5-min Rain = 0
KPD4 162115Z 22013KT 24/M01 A301 RMK A01 T02351009  RH  020%=      5-min Rain = 0
KPD4 162116Z 20015G20KT 24/M01 A301 RMK A01 T02361005  RH  020%=      5-min Rain = 0
KPD4 162117Z 21018KT 24/M01 A301 RMK A01 T02381009  RH  019%=      5-min Rain = 0
KPD4 162118Z 21015KT 24/M01 A301 RMK A01 T02371008  RH  020%=      5-min Rain = 0
KPD4 162119Z 19013G18KT 24/M00 A301 RMK A01 T02361003  RH  021%=      5-min Rain = 0
KPD4 162120Z 19016KT 24/00 A301 RMK A01 T02380001  RH  021%=      5-min Rain = 0
KPD4 162121Z 19013KT 24/M00 A301 RMK A01 T02361003  RH  021%=      5-min Rain = 0
KPD4 162122Z 19016G22KT 24/00 A301 RMK A01 T02350000  RH  021%=      5-min Rain = 0
KPD4 162123Z 21016G22KT 24/00 A301 RMK A01 T02390001  RH  021%=      5-min Rain = 0
KPD4 162124Z 21016KT 24/M00 A301 RMK A01 T02371003  RH  020%=      5-min Rain = 0
KPD4 162125Z 21011KT 24/M00 A301 RMK A01 T02351001  RH  021%=      5-min Rain = 0
KPD4 162126Z 20012KT 24/00 A301 RMK A01 T02350000  RH  021%=      5-min Rain = 0
KPD4 162127Z 20013KT 24/00 A301 RMK A01 T02370001  RH  021%=      5-min Rain = 0
KPD4 162128Z 18011KT 24/00 A301 RMK A01 T02360001  RH  021%=      5-min Rain = 0
KPD4 162129Z 19014KT 24/00 A301 RMK A01 T02360004  RH  022%=      5-min Rain = 0
KPD4 162130Z 19015KT 24/00 A301 RMK A01 T02380003  RH  021%=      5-min Rain = 0
KPD4 162131Z 19017KT 24/00 A301 RMK A01 T02390002  RH  021%=      5-min Rain = 0
KPD4 162132Z 19015KT 24/M00 A301 RMK A01 T02391001  RH  020%=      5-min Rain = 0
KPD4 162133Z 21017KT 24/M00 A3009 RMK A01 T02391002  RH  020%=      5-min Rain = 0
KPD4 162134Z 22017KT 24/M00 A3009 RMK A01 T02371003  RH  020%=      5-min Rain = 0
KPD4 162135Z 20012KT 24/M00 A301 RMK A01 T02351001  RH  021%=      5-min Rain = 0
KPD4 162136Z 19012KT 24/00 A3009 RMK A01 T02360000  RH  021%=      5-min Rain = 0
KPD4 162137Z 21010KT 24/00 A3009 RMK A01 T02360000  RH  021%=      5-min Rain = 0
KPD4 162138Z 18010KT 24/00 A3009 RMK A01 T02360000  RH  021%=      5-min Rain = 0
KPD4 162139Z 19014G19KT 24/00 A3009 RMK A01 T02380002  RH  021%=      5-min Rain = 0
KPD4 162140Z 20012KT 24/00 A3009 RMK A01 T02400002  RH  021%=      5-min Rain = 0
KPD4 162141Z 20014KT 24/00 A3009 RMK A01 T02420002  RH  021%=      5-min Rain = 0
KPD4 162142Z 21013KT 24/00 A3009 RMK A01 T02400001  RH  021%=      5-min Rain = 0
KPD4 162143Z 20014KT 24/00 A3009 RMK A01 T02380000  RH  021%=      5-min Rain = 0
KPD4 162144Z 19013KT 24/00 A3009 RMK A01 T02370000  RH  021%=      5-min Rain = 0
KPD4 162145Z 20011KT 24/00 A3009 RMK A01 T02360001  RH  021%=      5-min Rain = 0
KPD4 162146Z 18010KT 24/00 A3009 RMK A01 T02360003  RH  022%=      5-min Rain = 0
KPD4 162147Z 18009KT 24/01 A3009 RMK A01 T02380007  RH  022%=      5-min Rain = 0
KPD4 162148Z 18011G16KT 24/01 A3009 RMK A01 T02400006  RH  021%=      5-min Rain = 0
KPD4 162149Z 19017KT 24/00 A3009 RMK A01 T02400003  RH  021%=      5-min Rain = 0
KPD4 162150Z 19015KT 24/M00 A3009 RMK A01 T02391002  RH  020%=      5-min Rain = 0
KPD4 162151Z 20015KT 24/M00 A3009 RMK A01 T02371003  RH  020%=      5-min Rain = 0
KPD4 162152Z 19016KT 24/M00 A3009 RMK A01 T02371003  RH  020%=      5-min Rain = 0
KPD4 162153Z 19017KT 24/M00 A3009 RMK A01 T02371004  RH  020%=      5-min Rain = 0
KPD4 162154Z 19018KT 24/M01 A3009 RMK A01 T02371006  RH  020%=      5-min Rain = 0
KPD4 162155Z 20018KT 24/M01 A3009 RMK A01 T02361008  RH  020%=      5-min Rain = 0
KPD4 162156Z 20017KT 24/M01 A3009 RMK A01 T02351008  RH  020%=      5-min Rain = 0
KPD4 162157Z 20014KT 24/M01 A3009 RMK A01 T02351008  RH  020%=      5-min Rain = 0
KPD4 162158Z 20013KT 24/M01 A3009 RMK A01 T02351006  RH  020%=      5-min Rain = 0
KPD4 162159Z 20011KT 24/M00 A3009 RMK A01 T02371003  RH  020%=      5-min Rain = 0
KPD4 162200Z 19012KT 24/00 A3009 RMK A01 T023900-0  RH  021%=      5-min Rain = 0
KPD4 162201Z 18015KT 24/M00 A3009 RMK A01 T02391001  RH  020%=      5-min Rain = 0
KPD4 162202Z 18013KT 24/M01 A3009 RMK A01 T02381007  RH  020%=      5-min Rain = 0
KPD4 162203Z 18013KT 24/M01 A3009 RMK A01 T02371007  RH  020%=      5-min Rain = 0
KPD4 162204Z 19014KT 24/M01 A3008 RMK A01 T02371007  RH  020%=      5-min Rain = 0
KPD4 162205Z 19013KT 24/M01 A3008 RMK A01 T02371006  RH  020%=      5-min Rain = 0
KPD4 162206Z 20011KT 24/M01 A3008 RMK A01 T02381007  RH  020%=      5-min Rain = 0
KPD4 162207Z 20014KT 24/M01 A3008 RMK A01 T02381006  RH  020%=      5-min Rain = 0
KPD4 162208Z 18011KT 24/M01 A3008 RMK A01 T02381006  RH  020%=      5-min Rain = 0
KPD4 162209Z 18015KT 24/M01 A3008 RMK A01 T02391006  RH  020%=      5-min Rain = 0
KPD4 162210Z 18013KT 24/M01 A3008 RMK A01 T02381006  RH  020%=      5-min Rain = 0
KPD4 162211Z 19012KT 24/M01 A3008 RMK A01 T02381007  RH  020%=      5-min Rain = 0
KPD4 162212Z 19011KT 24/M01 A3008 RMK A01 T02391009  RH  019%=      5-min Rain = 0
KPD4 162213Z 19011G17KT 24/M01 A3008 RMK A01 T02391005  RH  020%=      5-min Rain = 0
KPD4 162214Z 19014KT 24/M01 A3008 RMK A01 T02411007  RH  019%=      5-min Rain = 0
KPD4 162215Z 19014KT 24/M01 A3008 RMK A01 T02421008  RH  019%=      5-min Rain = 0
KPD4 162216Z 20013KT 24/M01 A3008 RMK A01 T02431010  RH  019%=      5-min Rain = 0
KPD4 162217Z 21014KT 24/M01 A3008 RMK A01 T02431012  RH  018%=      5-min Rain = 0
KPD4 162218Z 21013KT 24/M01 A3008 RMK A01 T02431014  RH  018%=      5-min Rain = 0
KPD4 162219Z 22013KT 24/M02 A3008 RMK A01 T02421017  RH  018%=      5-min Rain = 0
KPD4 162220Z 20012KT 24/M02 A3008 RMK A01 T02411017  RH  018%=      5-min Rain = 0
KPD4 162221Z 20011KT 24/M01 A3008 RMK A01 T02411011  RH  019%=      5-min Rain = 0
KPD4 162222Z 19015KT 24/M01 A3008 RMK A01 T02431014  RH  018%=      5-min Rain = 0
KPD4 162223Z 20012KT 24/M02 A3008 RMK A01 T02411015  RH  018%=      5-min Rain = 0
KPD4 162224Z 20013KT 24/M01 A3008 RMK A01 T02401012  RH  019%=      5-min Rain = 0
KPD4 162225Z 19012KT 24/M01 A3008 RMK A01 T02401013  RH  019%=      5-min Rain = 0
KPD4 162226Z 19014KT 24/M01 A3008 RMK A01 T02411011  RH  019%=      5-min Rain = 0
KPD4 162227Z 19015KT 24/M02 A3008 RMK A01 T02421017  RH  018%=      5-min Rain = 0
KPD4 162228Z 19016KT 24/M02 A3008 RMK A01 T02401018  RH  018%=      5-min Rain = 0
KPD4 162229Z 20013KT 24/M02 A3008 RMK A01 T02391018  RH  018%=      5-min Rain = 0
KPD4 162230Z 20012KT 24/M02 A3008 RMK A01 T02391017  RH  018%=      5-min Rain = 0
KPD4 162231Z 20017G23KT 24/M02 A3008 RMK A01 T02401016  RH  018%=      5-min Rain = 0
KPD4 162232Z 21016KT 24/M02 A3008 RMK A01 T02411020  RH  018%=      5-min Rain = 0
KPD4 162233Z 22014KT 24/M02 A3008 RMK A01 T02401021  RH  018%=      5-min Rain = 0
KPD4 162234Z 22012KT 24/M02 A3008 RMK A01 T02391021  RH  018%=      5-min Rain = 0
KPD4 162235Z 22012KT 24/M02 A3008 RMK A01 T02391020  RH  018%=      5-min Rain = 0
KPD4 162236Z 21013KT 24/M02 A3008 RMK A01 T02391019  RH  018%=      5-min Rain = 0
KPD4 162237Z 21013KT 24/M02 A3008 RMK A01 T02401020  RH  018%=      5-min Rain = 0
KPD4 162238Z 20011KT 24/M02 A3008 RMK A01 T02391020  RH  018%=      5-min Rain = 0
KPD4 162239Z 19014KT 24/M02 A3008 RMK A01 T02401016  RH  018%=      5-min Rain = 0
KPD4 162240Z 19016KT 24/M01 A3008 RMK A01 T02401013  RH  019%=      5-min Rain = 0
KPD4 162241Z 19015KT 24/M01 A3008 RMK A01 T02391013  RH  019%=      5-min Rain = 0
KPD4 162242Z 19017KT 24/M01 A3008 RMK A01 T02381013  RH  019%=      5-min Rain = 0
KPD4 162243Z 19015KT 24/M01 A3008 RMK A01 T02361013  RH  019%=      5-min Rain = 0
KPD4 162244Z 19015KT 24/M01 A3008 RMK A01 T02361011  RH  019%=      5-min Rain = 0
KPD4 162245Z 19014KT 24/M01 A3008 RMK A01 T02361013  RH  019%=      5-min Rain = 0
KPD4 162246Z 19014KT 24/M01 A3008 RMK A01 T02361012  RH  019%=      5-min Rain = 0
KPD4 162247Z 19014KT 24/M01 A3008 RMK A01 T02361012  RH  019%=      5-min Rain = 0
KPD4 162248Z 19013KT 24/M01 A3008 RMK A01 T02351013  RH  019%=      5-min Rain = 0
KPD4 162249Z 18014KT 24/M01 A3008 RMK A01 T02351011  RH  020%=      5-min Rain = 0
KPD4 162250Z 18014KT 24/M01 A3008 RMK A01 T02351010  RH  020%=      5-min Rain = 0
KPD4 162251Z 18010KT 24/M01 A3008 RMK A01 T02351009  RH  020%=      5-min Rain = 0
KPD4 162252Z 19011KT 24/M01 A3008 RMK A01 T02351007  RH  020%=      5-min Rain = 0
KPD4 162253Z 19017KT 24/M01 A3008 RMK A01 T02361010  RH  020%=      5-min Rain = 0
KPD4 162254Z 19016KT 24/M01 A3008 RMK A01 T02351012  RH  019%=      5-min Rain = 0
KPD4 162255Z 19015KT 23/M01 A3008 RMK A01 T02341011  RH  020%=      5-min Rain = 0
KPD4 162256Z 19016KT 23/M01 A3008 RMK A01 T02341014  RH  019%=      5-min Rain = 0
KPD4 162257Z 20013KT 23/M01 A3008 RMK A01 T02331013  RH  019%=      5-min Rain = 0
KPD4 162258Z 19011KT 23/M01 A3008 RMK A01 T02321012  RH  020%=      5-min Rain = 0
KPD4 162259Z 19012KT 23/M01 A3008 RMK A01 T02331011  RH  020%=      5-min Rain = 0
KPD4 162300Z 18012KT 23/M01 A3008 RMK A01 T02331012  RH  020%=      5-min Rain = 0
KPD4 162301Z 19013KT 23/M01 A3008 RMK A01 T02331011  RH  020%=      5-min Rain = 0
KPD4 162302Z 18014KT 23/M01 A3007 RMK A01 T02331010  RH  020%=      5-min Rain = 0
KPD4 162303Z 19012KT 23/M01 A3007 RMK A01 T02321011  RH  020%=      5-min Rain = 0
KPD4 162304Z 18012KT 23/M01 A3007 RMK A01 T02321009  RH  020%=      5-min Rain = 0
KPD4 162305Z 19014KT 23/M01 A3007 RMK A01 T02321008  RH  020%=      5-min Rain = 0
KPD4 162306Z 19010KT 23/M01 A3008 RMK A01 T02311008  RH  020%=      5-min Rain = 0
KPD4 162307Z 19014KT 23/M01 A3007 RMK A01 T02311009  RH  020%=      5-min Rain = 0
KPD4 162308Z 19015KT 23/M01 A3007 RMK A01 T02311011  RH  020%=      5-min Rain = 0
KPD4 162309Z 19015KT 23/M01 A3007 RMK A01 T02301011  RH  020%=      5-min Rain = 0
KPD4 162310Z 18015KT 23/M01 A3007 RMK A01 T02291010  RH  020%=      5-min Rain = 0
KPD4 162311Z 19013KT 23/M01 A3007 RMK A01 T02291010  RH  020%=      5-min Rain = 0
KPD4 162312Z 18012KT 23/M01 A3007 RMK A01 T02281008  RH  021%=      5-min Rain = 0
KPD4 162313Z 18016KT 23/M01 A3007 RMK A01 T02281008  RH  021%=      5-min Rain = 0
KPD4 162314Z 18015KT 23/M01 A3007 RMK A01 T02271010  RH  021%=      5-min Rain = 0
KPD4 162315Z 18013KT 23/M01 A3007 RMK A01 T02271009  RH  021%=      5-min Rain = 0
KPD4 162316Z 18013KT 23/M01 A3007 RMK A01 T02261009  RH  021%=      5-min Rain = 0
KPD4 162317Z 19014KT 23/M01 A3007 RMK A01 T02261009  RH  021%=      5-min Rain = 0
KPD4 162318Z 18014KT 23/M01 A3007 RMK A01 T02251008  RH  021%=      5-min Rain = 0
KPD4 162319Z 19013KT 23/M01 A3007 RMK A01 T02251008  RH  021%=      5-min Rain = 0
KPD4 162320Z 19014KT 22/M01 A3007 RMK A01 T02241009  RH  021%=      5-min Rain = 0
KPD4 162321Z 19013KT 22/M01 A3007 RMK A01 T02241009  RH  021%=      5-min Rain = 0
KPD4 162322Z 20011KT 22/M01 A3007 RMK A01 T02241008  RH  021%=      5-min Rain = 0
KPD4 162323Z 19012KT 22/M01 A3007 RMK A01 T02241008  RH  021%=      5-min Rain = 0
KPD4 162324Z 19012KT 22/M01 A3007 RMK A01 T02241009  RH  021%=      5-min Rain = 0
KPD4 162325Z 18013KT 22/M01 A3007 RMK A01 T02241010  RH  021%=      5-min Rain = 0
KPD4 162326Z 19012KT 22/M01 A3007 RMK A01 T02241008  RH  021%=      5-min Rain = 0
KPD4 162327Z 19011KT 22/M01 A3007 RMK A01 T02231008  RH  021%=      5-min Rain = 0
KPD4 162328Z 19010KT 22/M01 A3007 RMK A01 T02221007  RH  022%=      5-min Rain = 0
KPD4 162329Z 19009KT 22/M01 A3007 RMK A01 T02221007  RH  022%=      5-min Rain = 0
KPD4 162330Z 19010KT 22/M01 A3007 RMK A01 T02211007  RH  022%=      5-min Rain = 0
KPD4 162331Z 19015KT 22/M01 A3007 RMK A01 T02211009  RH  022%=      5-min Rain = 0
KPD4 162332Z 19010KT 22/M01 A3007 RMK A01 T02211009  RH  022%=      5-min Rain = 0
KPD4 162333Z 19011KT 22/M01 A3007 RMK A01 T02201008  RH  022%=      5-min Rain = 0
KPD4 162334Z 19011KT 22/M01 A3007 RMK A01 T02191008  RH  022%=      5-min Rain = 0
KPD4 162335Z 19013KT 22/M01 A3007 RMK A01 T02191008  RH  022%=      5-min Rain = 0
KPD4 162336Z 19011KT 22/M01 A3007 RMK A01 T02181009  RH  022%=      5-min Rain = 0
KPD4 162337Z 20011KT 22/M01 A3007 RMK A01 T02171009  RH  022%=      5-min Rain = 0
KPD4 162338Z 20011KT 22/M01 A3007 RMK A01 T02161009  RH  022%=      5-min Rain = 0
KPD4 162339Z 19010KT 22/M01 A3007 RMK A01 T02151008  RH  022%=      5-min Rain = 0
KPD4 162340Z 19011KT 21/M01 A3007 RMK A01 T02141009  RH  023%=      5-min Rain = 0
KPD4 162341Z 19010KT 21/M01 A3007 RMK A01 T02131009  RH  023%=      5-min Rain = 0
KPD4 162342Z 20010KT 21/M01 A3007 RMK A01 T02121009  RH  023%=      5-min Rain = 0
KPD4 162343Z 19011KT 21/M01 A3007 RMK A01 T02111009  RH  023%=      5-min Rain = 0
KPD4 162344Z 19011KT 21/M01 A3007 RMK A01 T02101009  RH  023%=      5-min Rain = 0
KPD4 162345Z 19011KT 21/M01 A3007 RMK A01 T02101009  RH  023%=      5-min Rain = 0
KPD4 162346Z 19011KT 21/M01 A3007 RMK A01 T02091010  RH  023%=      5-min Rain = 0
KPD4 162347Z 19010KT 21/M01 A3007 RMK A01 T02091009  RH  023%=      5-min Rain = 0
KPD4 162348Z 19010KT 21/M01 A3007 RMK A01 T02071009  RH  023%=      5-min Rain = 0
KPD4 162349Z 19010KT 21/M01 A3007 RMK A01 T02061009  RH  024%=      5-min Rain = 0
KPD4 162350Z 19009KT 20/M01 A3007 RMK A01 T02041009  RH  024%=      5-min Rain = 0
KPD4 162351Z 19009KT 20/M01 A3007 RMK A01 T02031008  RH  024%=      5-min Rain = 0
KPD4 162352Z 19009KT 20/M01 A3007 RMK A01 T02021008  RH  024%=      5-min Rain = 0
KPD4 162353Z 19009KT 20/M01 A3007 RMK A01 T02011008  RH  025%=      5-min Rain = 0
KPD4 162354Z 19008KT 20/M01 A3007 RMK A01 T02001008  RH  025%=      5-min Rain = 0
KPD4 162355Z 19009KT 20/M01 A3007 RMK A01 T01991008  RH  025%=      5-min Rain = 0
KPD4 162356Z 19009KT 20/M01 A3007 RMK A01 T01981007  RH  025%=      5-min Rain = 0
KPD4 162357Z 19009KT 20/M01 A3007 RMK A01 T01971007  RH  025%=      5-min Rain = 0
KPD4 162358Z 19009KT 20/M01 A3007 RMK A01 T01961006  RH  026%=      5-min Rain = 0
KPD4 162359Z 19009KT 20/M01 A3007 RMK A01 T01951006  RH  026%=      5-min Rain = 0
KPD4 170000Z 19008KT 19/M01 A3007 RMK A01 T01941006  RH  026%=      5-min Rain = 0
KPD4 170001Z 20009KT 19/M01 A3007 RMK A01 T01921006  RH  026%=      5-min Rain = 0
KPD4 170002Z 20009KT 19/M01 A3007 RMK A01 T01911006  RH  026%=      5-min Rain = 0
KPD4 170003Z 19009KT 19/M01 A3007 RMK A01 T01901006  RH  027%=      5-min Rain = 0
KPD4 170004Z 20008KT 19/M01 A3007 RMK A01 T01891006  RH  027%=      5-min Rain = 0
KPD4 170005Z 19008KT 19/M01 A3007 RMK A01 T01881006  RH  027%=      5-min Rain = 0
KPD4 170006Z 19008KT 19/M01 A3007 RMK A01 T01861006  RH  027%=      5-min Rain = 0
KPD4 170007Z 19008KT 19/M01 A3007 RMK A01 T01851006  RH  027%=      5-min Rain = 0
KPD4 170008Z 19009KT 19/M01 A3007 RMK A01 T01851007  RH  027%=      5-min Rain = 0
KPD4 170009Z 19009KT 19/M01 A3007 RMK A01 T01851007  RH  027%=      5-min Rain = 0
KPD4 170010Z 19009KT 19/M01 A3007 RMK A01 T01861006  RH  027%=      5-min Rain = 0
KPD4 170011Z 19008KT 19/M01 A3007 RMK A01 T01861006  RH  027%=      5-min Rain = 0
KPD4 170012Z 19009KT 18/M01 A3007 RMK A01 T01841007  RH  027%=      5-min Rain = 0
KPD4 170013Z 19010KT 18/M01 A3007 RMK A01 T01841007  RH  027%=      5-min Rain = 0
KPD4 170014Z 19009KT 18/M01 A3007 RMK A01 T01841007  RH  027%=      5-min Rain = 0
KPD4 170015Z 19009KT 18/M01 A3007 RMK A01 T01841007  RH  027%=      5-min Rain = 0
KPD4 170016Z 19009KT 18/M01 A3007 RMK A01 T01831007  RH  028%=      5-min Rain = 0
KPD4 170017Z 19009KT 18/M01 A3007 RMK A01 T01831007  RH  028%=      5-min Rain = 0
KPD4 170018Z 19009KT 18/M01 A3007 RMK A01 T01831007  RH  028%=      5-min Rain = 0
KPD4 170019Z 19009KT 18/M01 A3007 RMK A01 T01831007  RH  028%=      5-min Rain = 0
KPD4 170020Z 19009KT 18/M01 A3007 RMK A01 T01821006  RH  028%=      5-min Rain = 0
KPD4 170021Z 19009KT 18/M01 A3007 RMK A01 T01811006  RH  028%=      5-min Rain = 0
KPD4 170022Z 19009KT 18/M01 A3007 RMK A01 T01801006  RH  028%=      5-min Rain = 0
KPD4 170023Z 19009KT 18/M01 A3007 RMK A01 T01801006  RH  028%=      5-min Rain = 0
KPD4 170024Z 19009KT 18/M01 A3007 RMK A01 T01791006  RH  029%=      5-min Rain = 0
KPD4 170025Z 19009KT 18/M01 A3007 RMK A01 T01791005  RH  029%=      5-min Rain = 0
KPD4 170026Z 19009KT 18/M01 A3007 RMK A01 T01781005  RH  029%=      5-min Rain = 0
KPD4 170027Z 19008KT 18/M01 A3007 RMK A01 T01771005  RH  029%=      5-min Rain = 0
KPD4 170028Z 19008KT 18/M00 A3007 RMK A01 T01771004  RH  029%=      5-min Rain = 0
KPD4 170029Z 19009KT 18/M00 A3007 RMK A01 T01761004  RH  029%=      5-min Rain = 0
KPD4 170030Z 19009KT 18/M00 A3007 RMK A01 T01761004  RH  030%=      5-min Rain = 0
KPD4 170031Z 19008KT 18/M00 A3007 RMK A01 T01751004  RH  030%=      5-min Rain = 0
KPD4 170032Z 19008KT 17/M00 A3007 RMK A01 T01741004  RH  030%=      5-min Rain = 0
KPD4 170033Z 19008KT 17/M00 A3007 RMK A01 T01731004  RH  030%=      5-min Rain = 0
KPD4 170034Z 19009KT 17/M00 A3007 RMK A01 T01721004  RH  030%=      5-min Rain = 0
KPD4 170035Z 18008KT 17/M00 A3007 RMK A01 T01711004  RH  030%=      5-min Rain = 0
KPD4 170036Z 19009KT 17/M00 A3007 RMK A01 T01701004  RH  031%=      5-min Rain = 0
KPD4 170037Z 19008KT 17/M00 A3007 RMK A01 T01701004  RH  031%=      5-min Rain = 0
KPD4 170038Z 19008KT 17/M00 A3007 RMK A01 T01691004  RH  031%=      5-min Rain = 0
KPD4 170039Z 19009KT 17/M00 A3007 RMK A01 T01681004  RH  031%=      5-min Rain = 0
KPD4 170040Z 19010KT 17/M00 A3007 RMK A01 T01681004  RH  031%=      5-min Rain = 0
KPD4 170041Z 19009KT 17/M00 A3007 RMK A01 T01701004  RH  031%=      5-min Rain = 0
KPD4 170042Z 19009KT 17/M00 A3007 RMK A01 T01711004  RH  030%=      5-min Rain = 0
KPD4 170043Z 19009KT 17/M00 A3007 RMK A01 T01711004  RH  030%=      5-min Rain = 0
KPD4 170044Z 19010KT 17/M00 A3007 RMK A01 T01701004  RH  031%=      5-min Rain = 0
KPD4 170045Z 19009KT 17/M00 A3007 RMK A01 T01691004  RH  031%=      5-min Rain = 0
KPD4 170046Z 19010KT 17/M00 A3007 RMK A01 T01691004  RH  031%=      5-min Rain = 0
KPD4 170047Z 19009KT 17/M00 A3007 RMK A01 T01691004  RH  031%=      5-min Rain = 0
KPD4 170048Z 19009KT 17/M00 A3007 RMK A01 T01691004  RH  031%=      5-min Rain = 0
KPD4 170049Z 19009KT 17/M00 A3007 RMK A01 T01681004  RH  031%=      5-min Rain = 0
KPD4 170050Z 19008KT 17/M00 A3007 RMK A01 T01681004  RH  031%=      5-min Rain = 0
KPD4 170051Z 19008KT 17/M00 A3007 RMK A01 T01671003  RH  031%=      5-min Rain = 0
KPD4 170052Z 19009KT 17/M00 A3007 RMK A01 T01651003  RH  032%=      5-min Rain = 0
KPD4 170053Z 19009KT 16/M00 A3007 RMK A01 T01641003  RH  032%=      5-min Rain = 0
KPD4 170054Z 18009KT 16/M00 A3007 RMK A01 T01631002  RH  032%=      5-min Rain = 0
KPD4 170055Z 18009KT 16/M00 A3007 RMK A01 T01631002  RH  033%=      5-min Rain = 0
KPD4 170056Z 18009KT 16/M00 A3007 RMK A01 T01631002  RH  033%=      5-min Rain = 0
KPD4 170057Z 18009KT 16/M00 A3007 RMK A01 T01631002  RH  033%=      5-min Rain = 0
KPD4 170058Z 18009KT 16/M00 A3007 RMK A01 T01631002  RH  033%=      5-min Rain = 0
KPD4 170059Z 18008KT 16/M00 A3007 RMK A01 T01641001  RH  032%=      5-min Rain = 0
KPD4 170100Z 18008KT 16/M00 A3007 RMK A01 T01631002  RH  033%=      5-min Rain = 0
KPD4 170101Z 18009KT 16/M00 A3007 RMK A01 T01611002  RH  033%=      5-min Rain = 0
KPD4 170102Z 18009KT 16/M00 A3007 RMK A01 T01601002  RH  033%=      5-min Rain = 0
KPD4 170103Z 19008KT 16/M00 A3007 RMK A01 T01601001  RH  033%=      5-min Rain = 0
KPD4 170104Z 18007KT 16/M00 A3007 RMK A01 T01591001  RH  034%=      5-min Rain = 0
KPD4 170105Z 19007KT 16/M00 A3007 RMK A01 T01581001  RH  034%=      5-min Rain = 0
KPD4 170106Z 18007KT 16/M00 A3007 RMK A01 T01561001  RH  034%=      5-min Rain = 0
KPD4 170107Z 18008KT 16/M00 A3007 RMK A01 T01561001  RH  034%=      5-min Rain = 0
KPD4 170108Z 18008KT 16/00 A3007 RMK A01 T015600-0  RH  035%=      5-min Rain = 0
KPD4 170109Z 18009KT 16/00 A3007 RMK A01 T01560000  RH  035%=      5-min Rain = 0
KPD4 170110Z 19011KT 16/00 A3006 RMK A01 T01560000  RH  035%=      5-min Rain = 0
KPD4 170111Z 19010KT 16/00 A3006 RMK A01 T01590001  RH  034%=      5-min Rain = 0
KPD4 170112Z 19010KT 16/00 A3006 RMK A01 T01600001  RH  034%=      5-min Rain = 0
KPD4 170113Z 18009KT 16/00 A3006 RMK A01 T01600001  RH  034%=      5-min Rain = 0
KPD4 170114Z 19009KT 16/00 A3006 RMK A01 T01590001  RH  034%=      5-min Rain = 0
KPD4 170115Z 19010KT 16/00 A3006 RMK A01 T01590001  RH  034%=      5-min Rain = 0
KPD4 170116Z 19011KT 16/00 A3006 RMK A01 T01570001  RH  035%=      5-min Rain = 0
KPD4 170117Z 19010KT 16/00 A3006 RMK A01 T01580002  RH  035%=      5-min Rain = 0
KPD4 170118Z 19009KT 16/00 A3006 RMK A01 T01580002  RH  034%=      5-min Rain = 0
KPD4 170119Z 19009KT 16/00 A3006 RMK A01 T01580002  RH  035%=      5-min Rain = 0
KPD4 170120Z 19010KT 16/00 A3006 RMK A01 T01570002  RH  035%=      5-min Rain = 0
KPD4 170121Z 19009KT 16/00 A3006 RMK A01 T01560002  RH  035%=      5-min Rain = 0
KPD4 170122Z 19009KT 16/00 A3006 RMK A01 T01560002  RH  035%=      5-min Rain = 0
KPD4 170123Z 19009KT 16/00 A3006 RMK A01 T01560002  RH  035%=      5-min Rain = 0
KPD4 170124Z 19009KT 16/00 A3006 RMK A01 T01550002  RH  035%=      5-min Rain = 0
KPD4 170125Z 19011KT 15/00 A3006 RMK A01 T01540003  RH  036%=      5-min Rain = 0
KPD4 170126Z 19010KT 16/00 A3006 RMK A01 T01550003  RH  036%=      5-min Rain = 0
KPD4 170127Z 19011KT 16/00 A3006 RMK A01 T01550003  RH  035%=      5-min Rain = 0
KPD4 170128Z 19013KT 16/00 A3006 RMK A01 T01570003  RH  035%=      5-min Rain = 0
KPD4 170129Z 19012KT 16/00 A3006 RMK A01 T01570003  RH  035%=      5-min Rain = 0
KPD4 170130Z 19012KT 16/00 A3006 RMK A01 T01580003  RH  035%=      5-min Rain = 0
KPD4 170131Z 19012KT 16/00 A3006 RMK A01 T01580003  RH  035%=      5-min Rain = 0
KPD4 170132Z 19012KT 16/00 A3006 RMK A01 T01580003  RH  035%=      5-min Rain = 0
KPD4 170133Z 19012KT 16/00 A3006 RMK A01 T01590003  RH  035%=      5-min Rain = 0
KPD4 170134Z 19012KT 16/00 A3006 RMK A01 T01580003  RH  035%=      5-min Rain = 0
KPD4 170135Z 19012KT 16/00 A3006 RMK A01 T01570003  RH  035%=      5-min Rain = 0
KPD4 170136Z 19011KT 16/00 A3006 RMK A01 T01570004  RH  035%=      5-min Rain = 0
KPD4 170137Z 19010KT 16/00 A3006 RMK A01 T01570004  RH  035%=      5-min Rain = 0
KPD4 170138Z 19012KT 16/00 A3006 RMK A01 T01550004  RH  036%=      5-min Rain = 0
KPD4 170139Z 19011KT 15/00 A3006 RMK A01 T01540004  RH  036%=      5-min Rain = 0
KPD4 170140Z 19013KT 15/00 A3006 RMK A01 T01540004  RH  036%=      5-min Rain = 0
KPD4 170141Z 19011KT 15/00 A3006 RMK A01 T01540004  RH  036%=      5-min Rain = 0
KPD4 170142Z 19013KT 16/00 A3006 RMK A01 T01550004  RH  036%=      5-min Rain = 0
KPD4 170143Z 19014KT 16/00 A3006 RMK A01 T01550004  RH  036%=      5-min Rain = 0
KPD4 170144Z 19012KT 16/01 A3006 RMK A01 T01570005  RH  035%=      5-min Rain = 0
KPD4 170145Z 19013KT 16/00 A3006 RMK A01 T01570004  RH  035%=      5-min Rain = 0
KPD4 170146Z 19013KT 16/00 A3006 RMK A01 T01570004  RH  035%=      5-min Rain = 0
KPD4 170147Z 19014KT 16/00 A3006 RMK A01 T01570004  RH  035%=      5-min Rain = 0
KPD4 170148Z 19013KT 16/00 A3006 RMK A01 T01570004  RH  035%=      5-min Rain = 0
KPD4 170149Z 19011KT 16/00 A3006 RMK A01 T01570004  RH  035%=      5-min Rain = 0
KPD4 170150Z 19009KT 16/00 A3006 RMK A01 T01560004  RH  036%=      5-min Rain = 0
KPD4 170151Z 19010KT 15/00 A3006 RMK A01 T01540004  RH  036%=      5-min Rain = 0
KPD4 170152Z 20009KT 15/00 A3006 RMK A01 T01510003  RH  036%=      5-min Rain = 0
KPD4 170153Z 20009KT 15/00 A3006 RMK A01 T01490003  RH  037%=      5-min Rain = 0
KPD4 170154Z 19008KT 15/00 A3006 RMK A01 T01470003  RH  037%=      5-min Rain = 0
KPD4 170155Z 19009KT 15/00 A3006 RMK A01 T01460004  RH  038%=      5-min Rain = 0
KPD4 170156Z 19009KT 15/00 A3006 RMK A01 T01460004  RH  038%=      5-min Rain = 0
KPD4 170157Z 19009KT 15/00 A3006 RMK A01 T01450004  RH  038%=      5-min Rain = 0
KPD4 170158Z 19009KT 14/00 A3006 RMK A01 T01440004  RH  038%=      5-min Rain = 0
KPD4 170159Z 19009KT 15/01 A3006 RMK A01 T01450005  RH  038%=      5-min Rain = 0
KPD4 170200Z 19010KT 15/01 A3006 RMK A01 T01450005  RH  038%=      5-min Rain = 0
KPD4 170201Z 19010KT 14/01 A3006 RMK A01 T01440005  RH  038%=      5-min Rain = 0
KPD4 170202Z 19010KT 14/01 A3006 RMK A01 T01440005  RH  039%=      5-min Rain = 0
KPD4 170203Z 19009KT 14/01 A3006 RMK A01 T01430005  RH  039%=      5-min Rain = 0
KPD4 170204Z 19010KT 14/01 A3006 RMK A01 T01420005  RH  039%=      5-min Rain = 0
KPD4 170205Z 19010KT 14/01 A3006 RMK A01 T01420005  RH  039%=      5-min Rain = 0
KPD4 170206Z 19010KT 14/01 A3006 RMK A01 T01420005  RH  039%=      5-min Rain = 0
KPD4 170207Z 19010KT 14/01 A3006 RMK A01 T01420005  RH  039%=      5-min Rain = 0
KPD4 170208Z 19011KT 14/01 A3006 RMK A01 T01420005  RH  039%=      5-min Rain = 0
KPD4 170209Z 19011KT 14/01 A3006 RMK A01 T01430005  RH  039%=      5-min Rain = 0
KPD4 170210Z 19011KT 15/01 A3006 RMK A01 T01450006  RH  039%=      5-min Rain = 0
KPD4 170211Z 18010KT 15/01 A3006 RMK A01 T01450005  RH  039%=      5-min Rain = 0
KPD4 170212Z 18010KT 15/01 A3006 RMK A01 T01450006  RH  039%=      5-min Rain = 0
KPD4 170213Z 19010KT 14/01 A3006 RMK A01 T01440005  RH  039%=      5-min Rain = 0
KPD4 170214Z 19010KT 14/01 A3006 RMK A01 T01430005  RH  039%=      5-min Rain = 0
KPD4 170215Z 19011KT 14/01 A3006 RMK A01 T01420005  RH  039%=      5-min Rain = 0
KPD4 170216Z 19011KT 14/01 A3006 RMK A01 T01420005  RH  039%=      5-min Rain = 0
KPD4 170217Z 19012KT 14/01 A3005 RMK A01 T01420005  RH  039%=      5-min Rain = 0
KPD4 170218Z 19010KT 14/01 A3006 RMK A01 T01420006  RH  039%=      5-min Rain = 0
KPD4 170219Z 19011KT 14/01 A3005 RMK A01 T01420006  RH  039%=      5-min Rain = 0
KPD4 170220Z 19012KT 14/01 A3005 RMK A01 T01420006  RH  039%=      5-min Rain = 0
KPD4 170221Z 19011KT 14/01 A3005 RMK A01 T01430006  RH  039%=      5-min Rain = 0
KPD4 170222Z 19013KT 14/01 A3005 RMK A01 T01430006  RH  039%=      5-min Rain = 0
KPD4 170223Z 20010KT 14/01 A3005 RMK A01 T01430006  RH  039%=      5-min Rain = 0
KPD4 170224Z 20011KT 14/01 A3005 RMK A01 T01420006  RH  039%=      5-min Rain = 0
KPD4 170225Z 19010KT 14/01 A3005 RMK A01 T01410006  RH  040%=      5-min Rain = 0
KPD4 170226Z 20009KT 14/01 A3005 RMK A01 T01400006  RH  040%=      5-min Rain = 0
KPD4 170227Z 19010KT 14/01 A3005 RMK A01 T01400006  RH  040%=      5-min Rain = 0
KPD4 170228Z 19010KT 14/01 A3005 RMK A01 T01390006  RH  040%=      5-min Rain = 0
KPD4 170229Z 20010KT 14/01 A3005 RMK A01 T01380006  RH  040%=      5-min Rain = 0
KPD4 170230Z 19010KT 14/01 A3005 RMK A01 T01380006  RH  040%=      5-min Rain = 0
KPD4 170231Z 20010KT 14/01 A3005 RMK A01 T01380006  RH  041%=      5-min Rain = 0
KPD4 170232Z 20010KT 14/01 A3005 RMK A01 T01380006  RH  040%=      5-min Rain = 0
KPD4 170233Z 19009KT 14/01 A3005 RMK A01 T01380007  RH  041%=      5-min Rain = 0
KPD4 170234Z 19010KT 14/01 A3005 RMK A01 T01380007  RH  041%=      5-min Rain = 0
KPD4 170235Z 19009KT 14/01 A3005 RMK A01 T01370007  RH  041%=      5-min Rain = 0
KPD4 170236Z 20008KT 14/01 A3005 RMK A01 T01360007  RH  041%=      5-min Rain = 0
KPD4 170237Z 19009KT 14/01 A3005 RMK A01 T01350007  RH  042%=      5-min Rain = 0
KPD4 170238Z 20009KT 13/01 A3005 RMK A01 T01340007  RH  042%=      5-min Rain = 0
KPD4 170239Z 20009KT 13/01 A3005 RMK A01 T01340007  RH  042%=      5-min Rain = 0
KPD4 170240Z 20008KT 13/01 A3006 RMK A01 T01340007  RH  042%=      5-min Rain = 0
KPD4 170241Z 20008KT 13/01 A3006 RMK A01 T01340007  RH  042%=      5-min Rain = 0
KPD4 170242Z 20009KT 13/01 A3006 RMK A01 T01330008  RH  042%=      5-min Rain = 0
KPD4 170243Z 20008KT 13/01 A3006 RMK A01 T01330008  RH  042%=      5-min Rain = 0
KPD4 170244Z 20010KT 13/01 A3006 RMK A01 T01330007  RH  042%=      5-min Rain = 0
KPD4 170245Z 20009KT 13/01 A3006 RMK A01 T01320007  RH  042%=      5-min Rain = 0
KPD4 170246Z 20008KT 13/01 A3006 RMK A01 T01320007  RH  042%=      5-min Rain = 0
KPD4 170247Z 19009KT 13/01 A3006 RMK A01 T01320007  RH  043%=      5-min Rain = 0
KPD4 170248Z 19009KT 13/01 A3006 RMK A01 T01310008  RH  043%=      5-min Rain = 0
KPD4 170249Z 19010KT 13/01 A3006 RMK A01 T01310008  RH  043%=      5-min Rain = 0
KPD4 170250Z 19010KT 13/01 A3006 RMK A01 T01310008  RH  043%=      5-min Rain = 0
KPD4 170251Z 19010KT 13/01 A3006 RMK A01 T01310008  RH  043%=      5-min Rain = 0
KPD4 170252Z 19011KT 13/01 A3006 RMK A01 T01310008  RH  043%=      5-min Rain = 0
KPD4 170253Z 18010KT 13/01 A3006 RMK A01 T01330009  RH  043%=      5-min Rain = 0
KPD4 170254Z 18010KT 13/01 A3006 RMK A01 T01330009  RH  043%=      5-min Rain = 0
KPD4 170255Z 18010KT 13/01 A3006 RMK A01 T01320009  RH  043%=      5-min Rain = 0
KPD4 170256Z 19010KT 13/01 A3006 RMK A01 T01320009  RH  043%=      5-min Rain = 0
KPD4 170257Z 18010KT 13/01 A3006 RMK A01 T01310008  RH  043%=      5-min Rain = 0
KPD4 170258Z 18012KT 13/01 A3006 RMK A01 T01290008  RH  044%=      5-min Rain = 0
KPD4 170259Z 18010KT 13/01 A3006 RMK A01 T01300009  RH  044%=      5-min Rain = 0
KPD4 170300Z 18011KT 13/01 A3006 RMK A01 T01300009  RH  044%=      5-min Rain = 0
KPD4 170301Z 18010KT 13/01 A3006 RMK A01 T01300009  RH  044%=      5-min Rain = 0
KPD4 170302Z 18010KT 13/01 A3006 RMK A01 T01300009  RH  044%=      5-min Rain = 0
KPD4 170303Z 18010KT 13/01 A3006 RMK A01 T01280009  RH  044%=      5-min Rain = 0
KPD4 170304Z 18008KT 13/01 A3006 RMK A01 T01280009  RH  044%=      5-min Rain = 0
KPD4 170305Z 18009KT 13/01 A3006 RMK A01 T01260009  RH  045%=      5-min Rain = 0
KPD4 170306Z 18008KT 13/01 A3006 RMK A01 T01250009  RH  045%=      5-min Rain = 0
KPD4 170307Z 19008KT 12/01 A3006 RMK A01 T01240009  RH  045%=      5-min Rain = 0
KPD4 170308Z 19007KT 12/01 A3006 RMK A01 T01230008  RH  045%=      5-min Rain = 0
KPD4 170309Z 19007KT 12/01 A3006 RMK A01 T01220008  RH  046%=      5-min Rain = 0
KPD4 170310Z 19007KT 12/01 A3006 RMK A01 T01210008  RH  046%=      5-min Rain = 0
KPD4 170311Z 19007KT 12/01 A3006 RMK A01 T01200008  RH  046%=      5-min Rain = 0
KPD4 170312Z 19008KT 12/01 A3006 RMK A01 T01190008  RH  046%=      5-min Rain = 0
KPD4 170313Z 19008KT 12/01 A3006 RMK A01 T01180008  RH  047%=      5-min Rain = 0
KPD4 170314Z 19008KT 12/01 A3006 RMK A01 T01180009  RH  047%=      5-min Rain = 0
KPD4 170315Z 19008KT 12/01 A3005 RMK A01 T01190009  RH  047%=      5-min Rain = 0
KPD4 170316Z 19008KT 12/01 A3005 RMK A01 T01180009  RH  047%=      5-min Rain = 0
KPD4 170317Z 19009KT 12/01 A3005 RMK A01 T01180009  RH  047%=      5-min Rain = 0
KPD4 170318Z 19009KT 12/01 A3005 RMK A01 T01180009  RH  047%=      5-min Rain = 0
KPD4 170319Z 19009KT 12/01 A3005 RMK A01 T01180010  RH  047%=      5-min Rain = 0
KPD4 170320Z 19009KT 12/01 A3005 RMK A01 T01180009  RH  047%=      5-min Rain = 0
KPD4 170321Z 19009KT 12/01 A3005 RMK A01 T01190010  RH  047%=      5-min Rain = 0
KPD4 170322Z 19008KT 12/01 A3005 RMK A01 T01190010  RH  047%=      5-min Rain = 0
KPD4 170323Z 19008KT 12/01 A3005 RMK A01 T01180010  RH  047%=      5-min Rain = 0
KPD4 170324Z 19008KT 12/01 A3005 RMK A01 T01170009  RH  048%=      5-min Rain = 0
KPD4 170325Z 19008KT 12/01 A3005 RMK A01 T01160009  RH  048%=      5-min Rain = 0
KPD4 170326Z 19008KT 12/01 A3005 RMK A01 T01150009  RH  048%=      5-min Rain = 0
KPD4 170327Z 19009KT 11/01 A3005 RMK A01 T01140009  RH  049%=      5-min Rain = 0
KPD4 170328Z 19008KT 11/01 A3005 RMK A01 T01140010  RH  049%=      5-min Rain = 0
KPD4 170329Z 19008KT 11/01 A3005 RMK A01 T01140010  RH  049%=      5-min Rain = 0
KPD4 170330Z 19008KT 11/01 A3005 RMK A01 T01130009  RH  049%=      5-min Rain = 0
KPD4 170331Z 19008KT 11/01 A3006 RMK A01 T01130009  RH  049%=      5-min Rain = 0
KPD4 170332Z 19009KT 11/01 A3006 RMK A01 T01140010  RH  049%=      5-min Rain = 0
KPD4 170333Z 19009KT 12/01 A3006 RMK A01 T01150010  RH  049%=      5-min Rain = 0
KPD4 170334Z 19009KT 12/01 A3006 RMK A01 T01150010  RH  048%=      5-min Rain = 0
KPD4 170335Z 19008KT 12/01 A3006 RMK A01 T01150010  RH  048%=      5-min Rain = 0
KPD4 170336Z 19009KT 12/01 A3006 RMK A01 T01150010  RH  048%=      5-min Rain = 0
KPD4 170337Z 19010KT 12/01 A3006 RMK A01 T01160011  RH  049%=      5-min Rain = 0
KPD4 170338Z 19010KT 12/01 A3006 RMK A01 T01160011  RH  048%=      5-min Rain = 0
KPD4 170339Z 19009KT 12/01 A3006 RMK A01 T01180011  RH  048%=      5-min Rain = 0
KPD4 170340Z 19009KT 12/01 A3006 RMK A01 T01190012  RH  048%=      5-min Rain = 0
KPD4 170341Z 19010KT 12/01 A3006 RMK A01 T01180011  RH  048%=      5-min Rain = 0
KPD4 170342Z 19009KT 12/01 A3006 RMK A01 T01180011  RH  048%=      5-min Rain = 0
KPD4 170343Z 19009KT 12/01 A3006 RMK A01 T01170011  RH  048%=      5-min Rain = 0
KPD4 170344Z 19009KT 12/01 A3006 RMK A01 T01160011  RH  048%=      5-min Rain = 0
KPD4 170345Z 19009KT 12/01 A3006 RMK A01 T01160011  RH  048%=      5-min Rain = 0
KPD4 170346Z 19009KT 12/01 A3006 RMK A01 T01160011  RH  049%=      5-min Rain = 0
KPD4 170347Z 19009KT 12/01 A3006 RMK A01 T01160011  RH  049%=      5-min Rain = 0
KPD4 170348Z 19009KT 12/01 A3006 RMK A01 T01150011  RH  049%=      5-min Rain = 0
KPD4 170349Z 19009KT 11/01 A3006 RMK A01 T01140011  RH  049%=      5-min Rain = 0
KPD4 170350Z 19009KT 11/01 A3006 RMK A01 T01120010  RH  049%=      5-min Rain = 0
KPD4 170351Z 19009KT 11/01 A3006 RMK A01 T01120010  RH  050%=      5-min Rain = 0
KPD4 170352Z 19009KT 11/01 A3006 RMK A01 T01120011  RH  050%=      5-min Rain = 0
KPD4 170353Z 19009KT 11/01 A3006 RMK A01 T01120011  RH  050%=      5-min Rain = 0
KPD4 170354Z 19009KT 11/01 A3006 RMK A01 T01120011  RH  050%=      5-min Rain = 0
KPD4 170355Z 19010KT 11/01 A3006 RMK A01 T01120011  RH  050%=      5-min Rain = 0
KPD4 170356Z 19009KT 11/01 A3006 RMK A01 T01120011  RH  050%=      5-min Rain = 0
KPD4 170357Z 19009KT 11/01 A3006 RMK A01 T01120011  RH  050%=      5-min Rain = 0
KPD4 170358Z 19010KT 11/01 A3005 RMK A01 T01110011  RH  050%=      5-min Rain = 0
KPD4 170359Z 19009KT 11/01 A3005 RMK A01 T01120011  RH  050%=      5-min Rain = 0
KPD4 170400Z 19009KT 11/01 A3005 RMK A01 T01120011  RH  050%=      5-min Rain = 0
KPD4 170401Z 19010KT 11/01 A3005 RMK A01 T01110011  RH  050%=      5-min Rain = 0
KPD4 170402Z 19009KT 11/01 A3005 RMK A01 T01110011  RH  050%=      5-min Rain = 0
KPD4 170403Z 19009KT 11/01 A3005 RMK A01 T01120011  RH  050%=      5-min Rain = 0
KPD4 170404Z 19009KT 11/01 A3006 RMK A01 T01110011  RH  050%=      5-min Rain = 0
KPD4 170405Z 19009KT 11/01 A3005 RMK A01 T01100011  RH  050%=      5-min Rain = 0
KPD4 170406Z 19009KT 11/01 A3005 RMK A01 T01090010  RH  051%=      5-min Rain = 0
KPD4 170407Z 19009KT 11/01 A3006 RMK A01 T01080010  RH  051%=      5-min Rain = 0
KPD4 170408Z 19009KT 11/01 A3006 RMK A01 T01070010  RH  051%=      5-min Rain = 0
KPD4 170409Z 19009KT 11/01 A3006 RMK A01 T01060010  RH  052%=      5-min Rain = 0
KPD4 170410Z 19008KT 11/01 A3006 RMK A01 T01050010  RH  052%=      5-min Rain = 0
KPD4 170411Z 19008KT 10/01 A3006 RMK A01 T01040010  RH  052%=      5-min Rain = 0
KPD4 170412Z 19008KT 10/01 A3005 RMK A01 T01030010  RH  053%=      5-min Rain = 0
KPD4 170413Z 19008KT 10/01 A3005 RMK A01 T01010009  RH  053%=      5-min Rain = 0
KPD4 170414Z 20008KT 10/01 A3005 RMK A01 T01010010  RH  053%=      5-min Rain = 0
KPD4 170415Z 20008KT 10/01 A3005 RMK A01 T01000010  RH  053%=      5-min Rain = 0
KPD4 170416Z 19009KT 10/01 A3005 RMK A01 T01000010  RH  054%=      5-min Rain = 0
KPD4 170417Z 20009KT 10/01 A3005 RMK A01 T00990010  RH  054%=      5-min Rain = 0
KPD4 170418Z 19009KT 10/01 A3005 RMK A01 T00990010  RH  054%=      5-min Rain = 0
KPD4 170419Z 20009KT 10/01 A3005 RMK A01 T00990010  RH  054%=      5-min Rain = 0
KPD4 170420Z 20009KT 10/01 A3005 RMK A01 T01000010  RH  054%=      5-min Rain = 0
KPD4 170421Z 19009KT 10/01 A3005 RMK A01 T01000010  RH  054%=      5-min Rain = 0
KPD4 170422Z 20009KT 10/01 A3005 RMK A01 T01000010  RH  054%=      5-min Rain = 0
KPD4 170423Z 20009KT 10/01 A3005 RMK A01 T01000010  RH  054%=      5-min Rain = 0
KPD4 170424Z 19010KT 10/01 A3005 RMK A01 T01010011  RH  054%=      5-min Rain = 0
KPD4 170425Z 19010KT 10/01 A3005 RMK A01 T01010011  RH  053%=      5-min Rain = 0
KPD4 170426Z 19011KT 10/01 A3005 RMK A01 T01020011  RH  053%=      5-min Rain = 0
KPD4 170427Z 19010KT 10/01 A3005 RMK A01 T01040012  RH  053%=      5-min Rain = 0
KPD4 170428Z 19011KT 10/01 A3005 RMK A01 T01040012  RH  053%=      5-min Rain = 0
KPD4 170429Z 20011KT 11/01 A3005 RMK A01 T01050012  RH  052%=      5-min Rain = 0
KPD4 170430Z 19010KT 11/01 A3005 RMK A01 T01060012  RH  052%=      5-min Rain = 0
KPD4 170431Z 19010KT 11/01 A3005 RMK A01 T01060012  RH  052%=      5-min Rain = 0
KPD4 170432Z 20011KT 11/01 A3005 RMK A01 T01060011  RH  052%=      5-min Rain = 0
KPD4 170433Z 20010KT 11/01 A3005 RMK A01 T01050011  RH  052%=      5-min Rain = 0
KPD4 170434Z 19009KT 11/01 A3005 RMK A01 T01050011  RH  052%=      5-min Rain = 0
KPD4 170435Z 20010KT 10/01 A3005 RMK A01 T01030011  RH  053%=      5-min Rain = 0
KPD4 170436Z 20009KT 10/01 A3005 RMK A01 T01030011  RH  053%=      5-min Rain = 0
KPD4 170437Z 20009KT 10/01 A3005 RMK A01 T01030011  RH  053%=      5-min Rain = 0
KPD4 170438Z 20009KT 10/01 A3005 RMK A01 T01020011  RH  053%=      5-min Rain = 0
KPD4 170439Z 20009KT 10/01 A3005 RMK A01 T01010011  RH  054%=      5-min Rain = 0
KPD4 170440Z 20009KT 10/01 A3005 RMK A01 T00990011  RH  054%=      5-min Rain = 0
KPD4 170441Z 20009KT 10/01 A3005 RMK A01 T00990011  RH  054%=      5-min Rain = 0
KPD4 170442Z 20009KT 10/01 A3005 RMK A01 T00990011  RH  054%=      5-min Rain = 0
KPD4 170443Z 20009KT 10/01 A3005 RMK A01 T00980011  RH  055%=      5-min Rain = 0
KPD4 170444Z 20009KT 10/01 A3005 RMK A01 T00960010  RH  055%=      5-min Rain = 0
KPD4 170445Z 20009KT 10/01 A3005 RMK A01 T00950011  RH  056%=      5-min Rain = 0
KPD4 170446Z 20008KT 10/01 A3005 RMK A01 T00950011  RH  056%=      5-min Rain = 0
KPD4 170447Z 20009KT 09/01 A3005 RMK A01 T00940011  RH  056%=      5-min Rain = 0
KPD4 170448Z 20009KT 09/01 A3005 RMK A01 T00930011  RH  056%=      5-min Rain = 0
KPD4 170449Z 20008KT 09/01 A3005 RMK A01 T00930011  RH  057%=      5-min Rain = 0
KPD4 170450Z 20008KT 09/01 A3005 RMK A01 T00920011  RH  057%=      5-min Rain = 0
KPD4 170451Z 20009KT 09/01 A3005 RMK A01 T00920011  RH  057%=      5-min Rain = 0
KPD4 170452Z 19009KT 09/01 A3005 RMK A01 T00920012  RH  057%=      5-min Rain = 0
KPD4 170453Z 19009KT 09/01 A3005 RMK A01 T00910012  RH  057%=      5-min Rain = 0
KPD4 170454Z 19009KT 09/01 A3005 RMK A01 T00910012  RH  058%=      5-min Rain = 0
KPD4 170455Z 19009KT 09/01 A3005 RMK A01 T00910012  RH  058%=      5-min Rain = 0
KPD4 170456Z 19009KT 09/01 A3005 RMK A01 T00910012  RH  058%=      5-min Rain = 0
KPD4 170457Z 20009KT 09/01 A3005 RMK A01 T00900012  RH  058%=      5-min Rain = 0
KPD4 170458Z 19009KT 09/01 A3005 RMK A01 T00900012  RH  058%=      5-min Rain = 0
KPD4 170459Z 20008KT 09/01 A3005 RMK A01 T00900012  RH  058%=      5-min Rain = 0

Page generated in 0.0919 seconds.